<?xml version="1.0" encoding="UTF-8" standalone="no" ?>
<gpx xmlns="http://www.topografix.com/GPX/1/1" xmlns:xsi="http://www.w3.org/2001/XMLSchema-instance" xsi:schemaLocation="http://www.topografix.com/GPX/1/1 http://www.topografix.com/GPX/1/1/gpx.xsd" version="1.1" creator="VisuGPX - https://www.visugpx.com">
  <metadata>
    <name>Tracé actuel: 10 AOU 2022 15:41</name>
  </metadata>
  <trk>
    <name><![CDATA[Tracé actuel: 10 AOU 2022 15:41]]></name>
    <trkseg>
      <trkpt lat="44.86469" lon="1.3004">
        <ele>108.77</ele>
        <time>2022-08-10T13:41:56Z</time>
      </trkpt>
      <trkpt lat="44.86461" lon="1.30005">
        <ele>106.84</ele>
        <time>2022-08-10T13:42:20Z</time>
      </trkpt>
      <trkpt lat="44.86451" lon="1.29972">
        <ele>106.36</ele>
        <time>2022-08-10T13:42:26Z</time>
      </trkpt>
      <trkpt lat="44.86449" lon="1.29962">
        <ele>105.88</ele>
        <time>2022-08-10T13:42:28Z</time>
      </trkpt>
      <trkpt lat="44.86449" lon="1.29955">
        <ele>105.4</ele>
        <time>2022-08-10T13:42:29Z</time>
      </trkpt>
      <trkpt lat="44.86451" lon="1.29949">
        <ele>104.92</ele>
        <time>2022-08-10T13:42:30Z</time>
      </trkpt>
      <trkpt lat="44.86454" lon="1.29943">
        <ele>104.92</ele>
        <time>2022-08-10T13:42:31Z</time>
      </trkpt>
      <trkpt lat="44.86457" lon="1.29938">
        <ele>104.44</ele>
        <time>2022-08-10T13:42:32Z</time>
      </trkpt>
      <trkpt lat="44.8646" lon="1.29932">
        <ele>103.96</ele>
        <time>2022-08-10T13:42:33Z</time>
      </trkpt>
      <trkpt lat="44.86462" lon="1.29926">
        <ele>103.96</ele>
        <time>2022-08-10T13:42:34Z</time>
      </trkpt>
      <trkpt lat="44.86463" lon="1.29918">
        <ele>103.48</ele>
        <time>2022-08-10T13:42:35Z</time>
      </trkpt>
      <trkpt lat="44.86464" lon="1.29912">
        <ele>103.48</ele>
        <time>2022-08-10T13:42:36Z</time>
      </trkpt>
      <trkpt lat="44.86463" lon="1.29904">
        <ele>103.48</ele>
        <time>2022-08-10T13:42:37Z</time>
      </trkpt>
      <trkpt lat="44.86462" lon="1.29898">
        <ele>103.48</ele>
        <time>2022-08-10T13:42:38Z</time>
      </trkpt>
      <trkpt lat="44.8646" lon="1.2989">
        <ele>103.48</ele>
        <time>2022-08-10T13:42:39Z</time>
      </trkpt>
      <trkpt lat="44.86458" lon="1.29885">
        <ele>103</ele>
        <time>2022-08-10T13:42:40Z</time>
      </trkpt>
      <trkpt lat="44.86455" lon="1.29879">
        <ele>103</ele>
        <time>2022-08-10T13:42:41Z</time>
      </trkpt>
      <trkpt lat="44.8645" lon="1.29868">
        <ele>103</ele>
        <time>2022-08-10T13:42:43Z</time>
      </trkpt>
      <trkpt lat="44.86447" lon="1.29863">
        <ele>103</ele>
        <time>2022-08-10T13:42:44Z</time>
      </trkpt>
      <trkpt lat="44.86418" lon="1.29808">
        <ele>104.44</ele>
        <time>2022-08-10T13:42:59Z</time>
      </trkpt>
      <trkpt lat="44.86401" lon="1.29768">
        <ele>107.32</ele>
        <time>2022-08-10T13:43:11Z</time>
      </trkpt>
      <trkpt lat="44.86401" lon="1.29762">
        <ele>107.32</ele>
        <time>2022-08-10T13:43:13Z</time>
      </trkpt>
      <trkpt lat="44.86402" lon="1.29757">
        <ele>107.32</ele>
        <time>2022-08-10T13:43:15Z</time>
      </trkpt>
      <trkpt lat="44.86402" lon="1.29753">
        <ele>107.32</ele>
        <time>2022-08-10T13:43:16Z</time>
      </trkpt>
      <trkpt lat="44.864" lon="1.29749">
        <ele>107.32</ele>
        <time>2022-08-10T13:43:17Z</time>
      </trkpt>
      <trkpt lat="44.86398" lon="1.29746">
        <ele>107.81</ele>
        <time>2022-08-10T13:43:18Z</time>
      </trkpt>
      <trkpt lat="44.86395" lon="1.29742">
        <ele>108.29</ele>
        <time>2022-08-10T13:43:19Z</time>
      </trkpt>
      <trkpt lat="44.86392" lon="1.2974">
        <ele>108.77</ele>
        <time>2022-08-10T13:43:20Z</time>
      </trkpt>
      <trkpt lat="44.8638" lon="1.29723">
        <ele>109.73</ele>
        <time>2022-08-10T13:43:25Z</time>
      </trkpt>
      <trkpt lat="44.86376" lon="1.29722">
        <ele>109.73</ele>
        <time>2022-08-10T13:43:26Z</time>
      </trkpt>
      <trkpt lat="44.86372" lon="1.29723">
        <ele>109.25</ele>
        <time>2022-08-10T13:43:27Z</time>
      </trkpt>
      <trkpt lat="44.86368" lon="1.29725">
        <ele>109.25</ele>
        <time>2022-08-10T13:43:28Z</time>
      </trkpt>
      <trkpt lat="44.86365" lon="1.29727">
        <ele>109.25</ele>
        <time>2022-08-10T13:43:29Z</time>
      </trkpt>
      <trkpt lat="44.86358" lon="1.29734">
        <ele>109.73</ele>
        <time>2022-08-10T13:43:38Z</time>
      </trkpt>
      <trkpt lat="44.86357" lon="1.29734">
        <ele>109.25</ele>
        <time>2022-08-10T13:43:40Z</time>
      </trkpt>
      <trkpt lat="44.86355" lon="1.29735">
        <ele>109.25</ele>
        <time>2022-08-10T13:43:41Z</time>
      </trkpt>
      <trkpt lat="44.86353" lon="1.29737">
        <ele>108.77</ele>
        <time>2022-08-10T13:43:42Z</time>
      </trkpt>
      <trkpt lat="44.86331" lon="1.29732">
        <ele>105.4</ele>
        <time>2022-08-10T13:43:51Z</time>
      </trkpt>
      <trkpt lat="44.86318" lon="1.2969">
        <ele>102.04</ele>
        <time>2022-08-10T13:44:04Z</time>
      </trkpt>
      <trkpt lat="44.86308" lon="1.2966">
        <ele>101.08</ele>
        <time>2022-08-10T13:44:10Z</time>
      </trkpt>
      <trkpt lat="44.86295" lon="1.29624">
        <ele>100.11</ele>
        <time>2022-08-10T13:44:17Z</time>
      </trkpt>
      <trkpt lat="44.86276" lon="1.2955">
        <ele>100.6</ele>
        <time>2022-08-10T13:44:31Z</time>
      </trkpt>
      <trkpt lat="44.86269" lon="1.29506">
        <ele>103.48</ele>
        <time>2022-08-10T13:44:44Z</time>
      </trkpt>
      <trkpt lat="44.86255" lon="1.29504">
        <ele>103.96</ele>
        <time>2022-08-10T13:44:48Z</time>
      </trkpt>
      <trkpt lat="44.86251" lon="1.29505">
        <ele>103.96</ele>
        <time>2022-08-10T13:44:49Z</time>
      </trkpt>
      <trkpt lat="44.86165" lon="1.29548">
        <ele>103.48</ele>
        <time>2022-08-10T13:45:06Z</time>
      </trkpt>
      <trkpt lat="44.86048" lon="1.29607">
        <ele>102.04</ele>
        <time>2022-08-10T13:45:25Z</time>
      </trkpt>
      <trkpt lat="44.85957" lon="1.29679">
        <ele>101.56</ele>
        <time>2022-08-10T13:45:41Z</time>
      </trkpt>
      <trkpt lat="44.85839" lon="1.29795">
        <ele>101.08</ele>
        <time>2022-08-10T13:46:04Z</time>
      </trkpt>
      <trkpt lat="44.85739" lon="1.29894">
        <ele>101.08</ele>
        <time>2022-08-10T13:46:23Z</time>
      </trkpt>
      <trkpt lat="44.85623" lon="1.30007">
        <ele>101.08</ele>
        <time>2022-08-10T13:46:45Z</time>
      </trkpt>
      <trkpt lat="44.85516" lon="1.30114">
        <ele>101.08</ele>
        <time>2022-08-10T13:47:06Z</time>
      </trkpt>
      <trkpt lat="44.85411" lon="1.30218">
        <ele>100.6</ele>
        <time>2022-08-10T13:47:26Z</time>
      </trkpt>
      <trkpt lat="44.85315" lon="1.30331">
        <ele>98.19</ele>
        <time>2022-08-10T13:47:45Z</time>
      </trkpt>
      <trkpt lat="44.8529" lon="1.30437">
        <ele>96.75</ele>
        <time>2022-08-10T13:47:57Z</time>
      </trkpt>
      <trkpt lat="44.85302" lon="1.30572">
        <ele>94.35</ele>
        <time>2022-08-10T13:48:11Z</time>
      </trkpt>
      <trkpt lat="44.85303" lon="1.30602">
        <ele>93.87</ele>
        <time>2022-08-10T13:48:14Z</time>
      </trkpt>
      <trkpt lat="44.85275" lon="1.3072">
        <ele>92.9</ele>
        <time>2022-08-10T13:48:26Z</time>
      </trkpt>
      <trkpt lat="44.85204" lon="1.30802">
        <ele>90.02</ele>
        <time>2022-08-10T13:48:38Z</time>
      </trkpt>
      <trkpt lat="44.85061" lon="1.30867">
        <ele>87.62</ele>
        <time>2022-08-10T13:48:58Z</time>
      </trkpt>
      <trkpt lat="44.84917" lon="1.30939">
        <ele>84.73</ele>
        <time>2022-08-10T13:49:19Z</time>
      </trkpt>
      <trkpt lat="44.8485" lon="1.31026">
        <ele>83.29</ele>
        <time>2022-08-10T13:49:31Z</time>
      </trkpt>
      <trkpt lat="44.8483" lon="1.31077">
        <ele>83.29</ele>
        <time>2022-08-10T13:49:37Z</time>
      </trkpt>
      <trkpt lat="44.8482" lon="1.31131">
        <ele>81.85</ele>
        <time>2022-08-10T13:49:43Z</time>
      </trkpt>
      <trkpt lat="44.84817" lon="1.31138">
        <ele>81.85</ele>
        <time>2022-08-10T13:49:44Z</time>
      </trkpt>
      <trkpt lat="44.84813" lon="1.31142">
        <ele>81.85</ele>
        <time>2022-08-10T13:49:45Z</time>
      </trkpt>
      <trkpt lat="44.84808" lon="1.31145">
        <ele>81.85</ele>
        <time>2022-08-10T13:49:46Z</time>
      </trkpt>
      <trkpt lat="44.84803" lon="1.31146">
        <ele>82.33</ele>
        <time>2022-08-10T13:49:47Z</time>
      </trkpt>
      <trkpt lat="44.84798" lon="1.31146">
        <ele>82.33</ele>
        <time>2022-08-10T13:49:48Z</time>
      </trkpt>
      <trkpt lat="44.84794" lon="1.31145">
        <ele>82.81</ele>
        <time>2022-08-10T13:49:49Z</time>
      </trkpt>
      <trkpt lat="44.84789" lon="1.31144">
        <ele>82.81</ele>
        <time>2022-08-10T13:49:50Z</time>
      </trkpt>
      <trkpt lat="44.84784" lon="1.31145">
        <ele>83.29</ele>
        <time>2022-08-10T13:49:51Z</time>
      </trkpt>
      <trkpt lat="44.8478" lon="1.31149">
        <ele>83.29</ele>
        <time>2022-08-10T13:49:52Z</time>
      </trkpt>
      <trkpt lat="44.84778" lon="1.31155">
        <ele>82.81</ele>
        <time>2022-08-10T13:49:53Z</time>
      </trkpt>
      <trkpt lat="44.84778" lon="1.31162">
        <ele>82.81</ele>
        <time>2022-08-10T13:49:54Z</time>
      </trkpt>
      <trkpt lat="44.8478" lon="1.3117">
        <ele>82.81</ele>
        <time>2022-08-10T13:49:55Z</time>
      </trkpt>
      <trkpt lat="44.84783" lon="1.31178">
        <ele>82.33</ele>
        <time>2022-08-10T13:49:56Z</time>
      </trkpt>
      <trkpt lat="44.84787" lon="1.31186">
        <ele>81.85</ele>
        <time>2022-08-10T13:49:57Z</time>
      </trkpt>
      <trkpt lat="44.84792" lon="1.31193">
        <ele>81.37</ele>
        <time>2022-08-10T13:49:58Z</time>
      </trkpt>
      <trkpt lat="44.848" lon="1.3121">
        <ele>80.89</ele>
        <time>2022-08-10T13:50:00Z</time>
      </trkpt>
      <trkpt lat="44.84804" lon="1.3122">
        <ele>80.41</ele>
        <time>2022-08-10T13:50:01Z</time>
      </trkpt>
      <trkpt lat="44.84807" lon="1.31231">
        <ele>79.93</ele>
        <time>2022-08-10T13:50:02Z</time>
      </trkpt>
      <trkpt lat="44.84813" lon="1.31263">
        <ele>78.97</ele>
        <time>2022-08-10T13:50:05Z</time>
      </trkpt>
      <trkpt lat="44.84813" lon="1.31272">
        <ele>78.48</ele>
        <time>2022-08-10T13:50:06Z</time>
      </trkpt>
      <trkpt lat="44.84811" lon="1.3128">
        <ele>78.48</ele>
        <time>2022-08-10T13:50:07Z</time>
      </trkpt>
      <trkpt lat="44.84807" lon="1.31287">
        <ele>78.48</ele>
        <time>2022-08-10T13:50:08Z</time>
      </trkpt>
      <trkpt lat="44.84803" lon="1.31292">
        <ele>78.48</ele>
        <time>2022-08-10T13:50:09Z</time>
      </trkpt>
      <trkpt lat="44.84795" lon="1.31302">
        <ele>78.48</ele>
        <time>2022-08-10T13:50:11Z</time>
      </trkpt>
      <trkpt lat="44.84772" lon="1.31329">
        <ele>78.48</ele>
        <time>2022-08-10T13:50:17Z</time>
      </trkpt>
      <trkpt lat="44.8477" lon="1.31334">
        <ele>78.48</ele>
        <time>2022-08-10T13:50:18Z</time>
      </trkpt>
      <trkpt lat="44.84769" lon="1.31339">
        <ele>78.48</ele>
        <time>2022-08-10T13:50:19Z</time>
      </trkpt>
      <trkpt lat="44.8477" lon="1.31347">
        <ele>78.48</ele>
        <time>2022-08-10T13:50:20Z</time>
      </trkpt>
      <trkpt lat="44.84772" lon="1.31352">
        <ele>78.48</ele>
        <time>2022-08-10T13:50:21Z</time>
      </trkpt>
      <trkpt lat="44.84774" lon="1.31357">
        <ele>78.48</ele>
        <time>2022-08-10T13:50:22Z</time>
      </trkpt>
      <trkpt lat="44.84778" lon="1.31362">
        <ele>78.48</ele>
        <time>2022-08-10T13:50:23Z</time>
      </trkpt>
      <trkpt lat="44.84781" lon="1.31368">
        <ele>78.48</ele>
        <time>2022-08-10T13:50:24Z</time>
      </trkpt>
      <trkpt lat="44.84845" lon="1.31471">
        <ele>78.97</ele>
        <time>2022-08-10T13:50:41Z</time>
      </trkpt>
      <trkpt lat="44.84867" lon="1.31527">
        <ele>79.45</ele>
        <time>2022-08-10T13:50:50Z</time>
      </trkpt>
      <trkpt lat="44.849" lon="1.31665">
        <ele>78.97</ele>
        <time>2022-08-10T13:51:08Z</time>
      </trkpt>
      <trkpt lat="44.84928" lon="1.31807">
        <ele>78.48</ele>
        <time>2022-08-10T13:51:26Z</time>
      </trkpt>
      <trkpt lat="44.84962" lon="1.31982">
        <ele>78</ele>
        <time>2022-08-10T13:51:47Z</time>
      </trkpt>
      <trkpt lat="44.8497" lon="1.32033">
        <ele>78</ele>
        <time>2022-08-10T13:51:53Z</time>
      </trkpt>
      <trkpt lat="44.84995" lon="1.32152">
        <ele>78</ele>
        <time>2022-08-10T13:52:08Z</time>
      </trkpt>
      <trkpt lat="44.84998" lon="1.32156">
        <ele>78.48</ele>
        <time>2022-08-10T13:52:09Z</time>
      </trkpt>
      <trkpt lat="44.85001" lon="1.32158">
        <ele>78.97</ele>
        <time>2022-08-10T13:52:10Z</time>
      </trkpt>
      <trkpt lat="44.85004" lon="1.32159">
        <ele>79.45</ele>
        <time>2022-08-10T13:52:11Z</time>
      </trkpt>
      <trkpt lat="44.85007" lon="1.32162">
        <ele>79.93</ele>
        <time>2022-08-10T13:52:12Z</time>
      </trkpt>
      <trkpt lat="44.85009" lon="1.32167">
        <ele>79.93</ele>
        <time>2022-08-10T13:52:13Z</time>
      </trkpt>
      <trkpt lat="44.85009" lon="1.32172">
        <ele>79.93</ele>
        <time>2022-08-10T13:52:14Z</time>
      </trkpt>
      <trkpt lat="44.85011" lon="1.32177">
        <ele>80.41</ele>
        <time>2022-08-10T13:52:15Z</time>
      </trkpt>
      <trkpt lat="44.8504" lon="1.32286">
        <ele>80.41</ele>
        <time>2022-08-10T13:52:31Z</time>
      </trkpt>
      <trkpt lat="44.85104" lon="1.3243">
        <ele>80.89</ele>
        <time>2022-08-10T13:52:52Z</time>
      </trkpt>
      <trkpt lat="44.85171" lon="1.32564">
        <ele>82.33</ele>
        <time>2022-08-10T13:53:12Z</time>
      </trkpt>
      <trkpt lat="44.85191" lon="1.32682">
        <ele>84.73</ele>
        <time>2022-08-10T13:53:28Z</time>
      </trkpt>
      <trkpt lat="44.85177" lon="1.32803">
        <ele>85.69</ele>
        <time>2022-08-10T13:53:43Z</time>
      </trkpt>
      <trkpt lat="44.8515" lon="1.32969">
        <ele>83.77</ele>
        <time>2022-08-10T13:54:02Z</time>
      </trkpt>
      <trkpt lat="44.85146" lon="1.3311">
        <ele>83.29</ele>
        <time>2022-08-10T13:54:18Z</time>
      </trkpt>
      <trkpt lat="44.85184" lon="1.33262">
        <ele>83.29</ele>
        <time>2022-08-10T13:54:35Z</time>
      </trkpt>
      <trkpt lat="44.85254" lon="1.3343">
        <ele>83.29</ele>
        <time>2022-08-10T13:54:55Z</time>
      </trkpt>
      <trkpt lat="44.85294" lon="1.335">
        <ele>85.21</ele>
        <time>2022-08-10T13:55:06Z</time>
      </trkpt>
      <trkpt lat="44.85294" lon="1.33505">
        <ele>85.69</ele>
        <time>2022-08-10T13:55:07Z</time>
      </trkpt>
      <trkpt lat="44.85294" lon="1.33509">
        <ele>85.69</ele>
        <time>2022-08-10T13:55:08Z</time>
      </trkpt>
      <trkpt lat="44.85295" lon="1.33513">
        <ele>85.69</ele>
        <time>2022-08-10T13:55:09Z</time>
      </trkpt>
      <trkpt lat="44.85296" lon="1.33518">
        <ele>85.69</ele>
        <time>2022-08-10T13:55:10Z</time>
      </trkpt>
      <trkpt lat="44.85299" lon="1.33521">
        <ele>85.69</ele>
        <time>2022-08-10T13:55:11Z</time>
      </trkpt>
      <trkpt lat="44.85302" lon="1.33525">
        <ele>85.69</ele>
        <time>2022-08-10T13:55:12Z</time>
      </trkpt>
      <trkpt lat="44.85305" lon="1.33529">
        <ele>85.69</ele>
        <time>2022-08-10T13:55:13Z</time>
      </trkpt>
      <trkpt lat="44.85307" lon="1.33535">
        <ele>85.69</ele>
        <time>2022-08-10T13:55:14Z</time>
      </trkpt>
      <trkpt lat="44.8531" lon="1.33541">
        <ele>85.69</ele>
        <time>2022-08-10T13:55:15Z</time>
      </trkpt>
      <trkpt lat="44.85336" lon="1.3359">
        <ele>85.21</ele>
        <time>2022-08-10T13:55:23Z</time>
      </trkpt>
      <trkpt lat="44.85339" lon="1.33596">
        <ele>85.21</ele>
        <time>2022-08-10T13:55:24Z</time>
      </trkpt>
      <trkpt lat="44.85345" lon="1.33607">
        <ele>85.69</ele>
        <time>2022-08-10T13:55:26Z</time>
      </trkpt>
      <trkpt lat="44.85387" lon="1.33697">
        <ele>87.14</ele>
        <time>2022-08-10T13:55:40Z</time>
      </trkpt>
      <trkpt lat="44.85405" lon="1.33733">
        <ele>88.58</ele>
        <time>2022-08-10T13:55:46Z</time>
      </trkpt>
      <trkpt lat="44.85408" lon="1.33739">
        <ele>88.58</ele>
        <time>2022-08-10T13:55:47Z</time>
      </trkpt>
      <trkpt lat="44.85453" lon="1.33822">
        <ele>90.02</ele>
        <time>2022-08-10T13:56:00Z</time>
      </trkpt>
      <trkpt lat="44.85506" lon="1.33921">
        <ele>90.02</ele>
        <time>2022-08-10T13:56:14Z</time>
      </trkpt>
      <trkpt lat="44.85578" lon="1.34055">
        <ele>88.1</ele>
        <time>2022-08-10T13:56:33Z</time>
      </trkpt>
      <trkpt lat="44.85628" lon="1.34147">
        <ele>89.06</ele>
        <time>2022-08-10T13:56:46Z</time>
      </trkpt>
      <trkpt lat="44.85678" lon="1.34257">
        <ele>91.46</ele>
        <time>2022-08-10T13:57:00Z</time>
      </trkpt>
      <trkpt lat="44.85685" lon="1.34277">
        <ele>90.98</ele>
        <time>2022-08-10T13:57:02Z</time>
      </trkpt>
      <trkpt lat="44.85696" lon="1.34311">
        <ele>90.5</ele>
        <time>2022-08-10T13:57:06Z</time>
      </trkpt>
      <trkpt lat="44.85706" lon="1.34337">
        <ele>90.5</ele>
        <time>2022-08-10T13:57:09Z</time>
      </trkpt>
      <trkpt lat="44.85709" lon="1.34346">
        <ele>90.02</ele>
        <time>2022-08-10T13:57:10Z</time>
      </trkpt>
      <trkpt lat="44.85746" lon="1.34478">
        <ele>89.54</ele>
        <time>2022-08-10T13:57:24Z</time>
      </trkpt>
      <trkpt lat="44.85804" lon="1.34599">
        <ele>88.58</ele>
        <time>2022-08-10T13:57:39Z</time>
      </trkpt>
      <trkpt lat="44.85861" lon="1.34667">
        <ele>85.69</ele>
        <time>2022-08-10T13:57:52Z</time>
      </trkpt>
      <trkpt lat="44.86227" lon="1.35029">
        <ele>92.42</ele>
        <time>2022-08-10T13:59:08Z</time>
      </trkpt>
      <trkpt lat="44.86286" lon="1.35118">
        <ele>89.54</ele>
        <time>2022-08-10T13:59:22Z</time>
      </trkpt>
      <trkpt lat="44.8634" lon="1.35229">
        <ele>89.54</ele>
        <time>2022-08-10T13:59:37Z</time>
      </trkpt>
      <trkpt lat="44.86395" lon="1.35339">
        <ele>90.02</ele>
        <time>2022-08-10T13:59:52Z</time>
      </trkpt>
      <trkpt lat="44.86466" lon="1.35451">
        <ele>89.06</ele>
        <time>2022-08-10T14:00:08Z</time>
      </trkpt>
      <trkpt lat="44.86549" lon="1.35537">
        <ele>89.06</ele>
        <time>2022-08-10T14:00:24Z</time>
      </trkpt>
      <trkpt lat="44.86557" lon="1.35546">
        <ele>89.06</ele>
        <time>2022-08-10T14:00:26Z</time>
      </trkpt>
      <trkpt lat="44.86625" lon="1.35608">
        <ele>87.62</ele>
        <time>2022-08-10T14:00:39Z</time>
      </trkpt>
      <trkpt lat="44.86651" lon="1.35633">
        <ele>88.1</ele>
        <time>2022-08-10T14:00:44Z</time>
      </trkpt>
      <trkpt lat="44.86667" lon="1.35654">
        <ele>89.06</ele>
        <time>2022-08-10T14:00:48Z</time>
      </trkpt>
      <trkpt lat="44.86673" lon="1.35662">
        <ele>89.06</ele>
        <time>2022-08-10T14:00:50Z</time>
      </trkpt>
      <trkpt lat="44.86674" lon="1.35668">
        <ele>89.06</ele>
        <time>2022-08-10T14:00:51Z</time>
      </trkpt>
      <trkpt lat="44.86672" lon="1.35671">
        <ele>89.06</ele>
        <time>2022-08-10T14:00:52Z</time>
      </trkpt>
      <trkpt lat="44.86671" lon="1.35675">
        <ele>89.06</ele>
        <time>2022-08-10T14:00:53Z</time>
      </trkpt>
      <trkpt lat="44.8667" lon="1.35678">
        <ele>89.06</ele>
        <time>2022-08-10T14:00:54Z</time>
      </trkpt>
      <trkpt lat="44.86671" lon="1.35682">
        <ele>89.06</ele>
        <time>2022-08-10T14:00:55Z</time>
      </trkpt>
      <trkpt lat="44.86674" lon="1.35685">
        <ele>88.58</ele>
        <time>2022-08-10T14:00:56Z</time>
      </trkpt>
      <trkpt lat="44.86675" lon="1.35686">
        <ele>88.58</ele>
        <time>2022-08-10T14:00:57Z</time>
      </trkpt>
      <trkpt lat="44.86678" lon="1.35686">
        <ele>88.1</ele>
        <time>2022-08-10T14:00:58Z</time>
      </trkpt>
      <trkpt lat="44.8668" lon="1.35685">
        <ele>88.1</ele>
        <time>2022-08-10T14:00:59Z</time>
      </trkpt>
      <trkpt lat="44.86681" lon="1.35684">
        <ele>88.1</ele>
        <time>2022-08-10T14:01:00Z</time>
      </trkpt>
      <trkpt lat="44.86683" lon="1.35683">
        <ele>88.1</ele>
        <time>2022-08-10T14:01:01Z</time>
      </trkpt>
      <trkpt lat="44.86684" lon="1.35683">
        <ele>88.1</ele>
        <time>2022-08-10T14:01:02Z</time>
      </trkpt>
      <trkpt lat="44.86702" lon="1.35673">
        <ele>87.62</ele>
        <time>2022-08-10T14:01:08Z</time>
      </trkpt>
      <trkpt lat="44.86707" lon="1.35669">
        <ele>87.62</ele>
        <time>2022-08-10T14:01:09Z</time>
      </trkpt>
      <trkpt lat="44.86711" lon="1.35665">
        <ele>87.62</ele>
        <time>2022-08-10T14:01:10Z</time>
      </trkpt>
      <trkpt lat="44.86715" lon="1.3566">
        <ele>87.62</ele>
        <time>2022-08-10T14:01:11Z</time>
      </trkpt>
      <trkpt lat="44.86719" lon="1.35656">
        <ele>87.62</ele>
        <time>2022-08-10T14:01:12Z</time>
      </trkpt>
      <trkpt lat="44.86772" lon="1.35613">
        <ele>88.58</ele>
        <time>2022-08-10T14:01:26Z</time>
      </trkpt>
      <trkpt lat="44.86812" lon="1.35587">
        <ele>89.54</ele>
        <time>2022-08-10T14:01:39Z</time>
      </trkpt>
      <trkpt lat="44.86849" lon="1.35563">
        <ele>91.94</ele>
        <time>2022-08-10T14:01:52Z</time>
      </trkpt>
      <trkpt lat="44.86906" lon="1.3553">
        <ele>92.42</ele>
        <time>2022-08-10T14:02:10Z</time>
      </trkpt>
      <trkpt lat="44.8696" lon="1.35495">
        <ele>92.9</ele>
        <time>2022-08-10T14:02:27Z</time>
      </trkpt>
      <trkpt lat="44.87006" lon="1.35448">
        <ele>93.87</ele>
        <time>2022-08-10T14:02:42Z</time>
      </trkpt>
      <trkpt lat="44.87052" lon="1.35392">
        <ele>96.75</ele>
        <time>2022-08-10T14:02:58Z</time>
      </trkpt>
      <trkpt lat="44.87091" lon="1.35339">
        <ele>96.75</ele>
        <time>2022-08-10T14:03:11Z</time>
      </trkpt>
      <trkpt lat="44.87122" lon="1.35295">
        <ele>95.79</ele>
        <time>2022-08-10T14:03:24Z</time>
      </trkpt>
      <trkpt lat="44.87181" lon="1.3527">
        <ele>103.96</ele>
        <time>2022-08-10T14:03:39Z</time>
      </trkpt>
      <trkpt lat="44.87244" lon="1.35264">
        <ele>106.84</ele>
        <time>2022-08-10T14:03:55Z</time>
      </trkpt>
      <trkpt lat="44.87311" lon="1.35247">
        <ele>106.84</ele>
        <time>2022-08-10T14:04:13Z</time>
      </trkpt>
      <trkpt lat="44.87383" lon="1.35225">
        <ele>107.81</ele>
        <time>2022-08-10T14:04:32Z</time>
      </trkpt>
      <trkpt lat="44.87401" lon="1.35217">
        <ele>107.81</ele>
        <time>2022-08-10T14:04:37Z</time>
      </trkpt>
      <trkpt lat="44.87448" lon="1.35179">
        <ele>104.44</ele>
        <time>2022-08-10T14:04:50Z</time>
      </trkpt>
      <trkpt lat="44.87499" lon="1.35128">
        <ele>105.4</ele>
        <time>2022-08-10T14:05:05Z</time>
      </trkpt>
      <trkpt lat="44.87557" lon="1.35073">
        <ele>112.13</ele>
        <time>2022-08-10T14:05:21Z</time>
      </trkpt>
      <trkpt lat="44.87615" lon="1.35058">
        <ele>115.01</ele>
        <time>2022-08-10T14:05:35Z</time>
      </trkpt>
      <trkpt lat="44.87669" lon="1.35059">
        <ele>117.9</ele>
        <time>2022-08-10T14:05:51Z</time>
      </trkpt>
      <trkpt lat="44.87714" lon="1.35019">
        <ele>123.67</ele>
        <time>2022-08-10T14:06:08Z</time>
      </trkpt>
      <trkpt lat="44.87748" lon="1.3497">
        <ele>127.51</ele>
        <time>2022-08-10T14:06:24Z</time>
      </trkpt>
      <trkpt lat="44.87786" lon="1.34946">
        <ele>127.51</ele>
        <time>2022-08-10T14:06:38Z</time>
      </trkpt>
      <trkpt lat="44.87826" lon="1.34939">
        <ele>129.43</ele>
        <time>2022-08-10T14:06:55Z</time>
      </trkpt>
      <trkpt lat="44.87868" lon="1.3495">
        <ele>131.84</ele>
        <time>2022-08-10T14:07:10Z</time>
      </trkpt>
      <trkpt lat="44.87918" lon="1.34972">
        <ele>138.57</ele>
        <time>2022-08-10T14:07:27Z</time>
      </trkpt>
      <trkpt lat="44.87963" lon="1.35016">
        <ele>138.57</ele>
        <time>2022-08-10T14:07:43Z</time>
      </trkpt>
      <trkpt lat="44.87984" lon="1.35064">
        <ele>138.09</ele>
        <time>2022-08-10T14:07:56Z</time>
      </trkpt>
      <trkpt lat="44.88005" lon="1.35115">
        <ele>140.01</ele>
        <time>2022-08-10T14:08:14Z</time>
      </trkpt>
      <trkpt lat="44.88017" lon="1.35155">
        <ele>140.49</ele>
        <time>2022-08-10T14:08:27Z</time>
      </trkpt>
      <trkpt lat="44.88018" lon="1.35207">
        <ele>131.36</ele>
        <time>2022-08-10T14:08:43Z</time>
      </trkpt>
      <trkpt lat="44.88021" lon="1.35224">
        <ele>127.03</ele>
        <time>2022-08-10T14:08:49Z</time>
      </trkpt>
      <trkpt lat="44.88022" lon="1.35227">
        <ele>126.55</ele>
        <time>2022-08-10T14:08:50Z</time>
      </trkpt>
      <trkpt lat="44.88023" lon="1.3523">
        <ele>125.59</ele>
        <time>2022-08-10T14:08:51Z</time>
      </trkpt>
      <trkpt lat="44.88024" lon="1.35232">
        <ele>125.11</ele>
        <time>2022-08-10T14:08:52Z</time>
      </trkpt>
      <trkpt lat="44.88025" lon="1.35235">
        <ele>125.11</ele>
        <time>2022-08-10T14:08:53Z</time>
      </trkpt>
      <trkpt lat="44.88026" lon="1.35238">
        <ele>125.11</ele>
        <time>2022-08-10T14:08:54Z</time>
      </trkpt>
      <trkpt lat="44.88055" lon="1.35257">
        <ele>131.84</ele>
        <time>2022-08-10T14:09:07Z</time>
      </trkpt>
      <trkpt lat="44.88085" lon="1.3525">
        <ele>137.13</ele>
        <time>2022-08-10T14:09:18Z</time>
      </trkpt>
      <trkpt lat="44.88117" lon="1.35234">
        <ele>146.26</ele>
        <time>2022-08-10T14:09:32Z</time>
      </trkpt>
      <trkpt lat="44.88142" lon="1.35228">
        <ele>152.51</ele>
        <time>2022-08-10T14:09:44Z</time>
      </trkpt>
      <trkpt lat="44.88163" lon="1.35226">
        <ele>154.43</ele>
        <time>2022-08-10T14:09:55Z</time>
      </trkpt>
      <trkpt lat="44.88186" lon="1.35237">
        <ele>154.91</ele>
        <time>2022-08-10T14:10:07Z</time>
      </trkpt>
      <trkpt lat="44.88213" lon="1.35268">
        <ele>158.27</ele>
        <time>2022-08-10T14:10:25Z</time>
      </trkpt>
      <trkpt lat="44.88237" lon="1.35298">
        <ele>160.2</ele>
        <time>2022-08-10T14:10:41Z</time>
      </trkpt>
      <trkpt lat="44.8827" lon="1.35322">
        <ele>161.64</ele>
        <time>2022-08-10T14:10:58Z</time>
      </trkpt>
      <trkpt lat="44.88301" lon="1.35326">
        <ele>168.37</ele>
        <time>2022-08-10T14:11:11Z</time>
      </trkpt>
      <trkpt lat="44.88329" lon="1.35332">
        <ele>171.25</ele>
        <time>2022-08-10T14:11:23Z</time>
      </trkpt>
      <trkpt lat="44.88355" lon="1.35338">
        <ele>169.81</ele>
        <time>2022-08-10T14:11:29Z</time>
      </trkpt>
      <trkpt lat="44.88359" lon="1.35338">
        <ele>168.85</ele>
        <time>2022-08-10T14:11:30Z</time>
      </trkpt>
      <trkpt lat="44.88377" lon="1.35336">
        <ele>166.93</ele>
        <time>2022-08-10T14:11:34Z</time>
      </trkpt>
      <trkpt lat="44.88381" lon="1.35335">
        <ele>166.45</ele>
        <time>2022-08-10T14:11:35Z</time>
      </trkpt>
      <trkpt lat="44.88386" lon="1.35335">
        <ele>165.96</ele>
        <time>2022-08-10T14:11:36Z</time>
      </trkpt>
      <trkpt lat="44.8839" lon="1.35335">
        <ele>165.96</ele>
        <time>2022-08-10T14:11:37Z</time>
      </trkpt>
      <trkpt lat="44.88394" lon="1.35334">
        <ele>165.48</ele>
        <time>2022-08-10T14:11:38Z</time>
      </trkpt>
      <trkpt lat="44.88398" lon="1.35333">
        <ele>165</ele>
        <time>2022-08-10T14:11:39Z</time>
      </trkpt>
      <trkpt lat="44.88402" lon="1.35332">
        <ele>164.52</ele>
        <time>2022-08-10T14:11:40Z</time>
      </trkpt>
      <trkpt lat="44.88406" lon="1.35333">
        <ele>164.04</ele>
        <time>2022-08-10T14:11:41Z</time>
      </trkpt>
      <trkpt lat="44.88409" lon="1.35333">
        <ele>164.04</ele>
        <time>2022-08-10T14:11:42Z</time>
      </trkpt>
      <trkpt lat="44.88413" lon="1.35334">
        <ele>164.04</ele>
        <time>2022-08-10T14:11:43Z</time>
      </trkpt>
      <trkpt lat="44.88418" lon="1.35335">
        <ele>163.56</ele>
        <time>2022-08-10T14:11:44Z</time>
      </trkpt>
      <trkpt lat="44.88429" lon="1.35341">
        <ele>163.08</ele>
        <time>2022-08-10T14:11:46Z</time>
      </trkpt>
      <trkpt lat="44.88434" lon="1.35344">
        <ele>163.08</ele>
        <time>2022-08-10T14:11:47Z</time>
      </trkpt>
      <trkpt lat="44.88437" lon="1.35349">
        <ele>163.08</ele>
        <time>2022-08-10T14:11:48Z</time>
      </trkpt>
      <trkpt lat="44.88478" lon="1.35398">
        <ele>161.64</ele>
        <time>2022-08-10T14:12:00Z</time>
      </trkpt>
      <trkpt lat="44.88539" lon="1.35449">
        <ele>161.64</ele>
        <time>2022-08-10T14:12:15Z</time>
      </trkpt>
      <trkpt lat="44.88617" lon="1.35519">
        <ele>158.75</ele>
        <time>2022-08-10T14:12:27Z</time>
      </trkpt>
      <trkpt lat="44.88705" lon="1.35597">
        <ele>155.39</ele>
        <time>2022-08-10T14:12:38Z</time>
      </trkpt>
      <trkpt lat="44.88714" lon="1.35601">
        <ele>155.39</ele>
        <time>2022-08-10T14:12:39Z</time>
      </trkpt>
      <trkpt lat="44.88723" lon="1.35604">
        <ele>155.39</ele>
        <time>2022-08-10T14:12:40Z</time>
      </trkpt>
      <trkpt lat="44.88732" lon="1.35604">
        <ele>155.39</ele>
        <time>2022-08-10T14:12:41Z</time>
      </trkpt>
      <trkpt lat="44.8874" lon="1.35604">
        <ele>155.87</ele>
        <time>2022-08-10T14:12:42Z</time>
      </trkpt>
      <trkpt lat="44.88747" lon="1.35603">
        <ele>155.87</ele>
        <time>2022-08-10T14:12:43Z</time>
      </trkpt>
      <trkpt lat="44.88754" lon="1.35601">
        <ele>156.35</ele>
        <time>2022-08-10T14:12:44Z</time>
      </trkpt>
      <trkpt lat="44.88759" lon="1.35599">
        <ele>156.83</ele>
        <time>2022-08-10T14:12:45Z</time>
      </trkpt>
      <trkpt lat="44.88797" lon="1.35586">
        <ele>159.72</ele>
        <time>2022-08-10T14:12:56Z</time>
      </trkpt>
      <trkpt lat="44.88836" lon="1.35572">
        <ele>161.16</ele>
        <time>2022-08-10T14:13:13Z</time>
      </trkpt>
      <trkpt lat="44.88863" lon="1.35563">
        <ele>164.04</ele>
        <time>2022-08-10T14:13:26Z</time>
      </trkpt>
      <trkpt lat="44.88895" lon="1.35551">
        <ele>166.93</ele>
        <time>2022-08-10T14:13:40Z</time>
      </trkpt>
      <trkpt lat="44.88935" lon="1.35539">
        <ele>172.21</ele>
        <time>2022-08-10T14:13:58Z</time>
      </trkpt>
      <trkpt lat="44.88971" lon="1.35525">
        <ele>175.1</ele>
        <time>2022-08-10T14:14:14Z</time>
      </trkpt>
      <trkpt lat="44.89005" lon="1.35495">
        <ele>180.38</ele>
        <time>2022-08-10T14:14:32Z</time>
      </trkpt>
      <trkpt lat="44.89033" lon="1.3546">
        <ele>182.79</ele>
        <time>2022-08-10T14:14:49Z</time>
      </trkpt>
      <trkpt lat="44.89061" lon="1.35425">
        <ele>185.19</ele>
        <time>2022-08-10T14:15:06Z</time>
      </trkpt>
      <trkpt lat="44.89095" lon="1.35395">
        <ele>189.04</ele>
        <time>2022-08-10T14:15:23Z</time>
      </trkpt>
      <trkpt lat="44.8914" lon="1.3541">
        <ele>191.44</ele>
        <time>2022-08-10T14:15:42Z</time>
      </trkpt>
      <trkpt lat="44.89182" lon="1.35415">
        <ele>193.36</ele>
        <time>2022-08-10T14:15:58Z</time>
      </trkpt>
      <trkpt lat="44.89232" lon="1.35414">
        <ele>192.88</ele>
        <time>2022-08-10T14:16:16Z</time>
      </trkpt>
      <trkpt lat="44.89275" lon="1.35437">
        <ele>195.28</ele>
        <time>2022-08-10T14:16:31Z</time>
      </trkpt>
      <trkpt lat="44.89301" lon="1.3549">
        <ele>197.21</ele>
        <time>2022-08-10T14:16:46Z</time>
      </trkpt>
      <trkpt lat="44.89341" lon="1.35549">
        <ele>201.05</ele>
        <time>2022-08-10T14:17:05Z</time>
      </trkpt>
      <trkpt lat="44.89367" lon="1.35601">
        <ele>201.53</ele>
        <time>2022-08-10T14:17:21Z</time>
      </trkpt>
      <trkpt lat="44.89357" lon="1.35663">
        <ele>202.49</ele>
        <time>2022-08-10T14:17:36Z</time>
      </trkpt>
      <trkpt lat="44.89329" lon="1.35727">
        <ele>207.3</ele>
        <time>2022-08-10T14:17:53Z</time>
      </trkpt>
      <trkpt lat="44.89331" lon="1.35792">
        <ele>210.19</ele>
        <time>2022-08-10T14:18:08Z</time>
      </trkpt>
      <trkpt lat="44.89371" lon="1.35835">
        <ele>213.07</ele>
        <time>2022-08-10T14:18:23Z</time>
      </trkpt>
      <trkpt lat="44.89427" lon="1.35855">
        <ele>214.03</ele>
        <time>2022-08-10T14:18:41Z</time>
      </trkpt>
      <trkpt lat="44.89487" lon="1.35838">
        <ele>214.51</ele>
        <time>2022-08-10T14:19:00Z</time>
      </trkpt>
      <trkpt lat="44.89545" lon="1.35818">
        <ele>217.88</ele>
        <time>2022-08-10T14:19:18Z</time>
      </trkpt>
      <trkpt lat="44.89601" lon="1.3579">
        <ele>220.76</ele>
        <time>2022-08-10T14:19:36Z</time>
      </trkpt>
      <trkpt lat="44.89654" lon="1.35753">
        <ele>222.68</ele>
        <time>2022-08-10T14:19:54Z</time>
      </trkpt>
      <trkpt lat="44.897" lon="1.3572">
        <ele>224.12</ele>
        <time>2022-08-10T14:20:10Z</time>
      </trkpt>
      <trkpt lat="44.89743" lon="1.35695">
        <ele>224.61</ele>
        <time>2022-08-10T14:20:24Z</time>
      </trkpt>
      <trkpt lat="44.89792" lon="1.35683">
        <ele>227.01</ele>
        <time>2022-08-10T14:20:39Z</time>
      </trkpt>
      <trkpt lat="44.8984" lon="1.35665">
        <ele>230.37</ele>
        <time>2022-08-10T14:20:53Z</time>
      </trkpt>
      <trkpt lat="44.89887" lon="1.35642">
        <ele>231.33</ele>
        <time>2022-08-10T14:21:07Z</time>
      </trkpt>
      <trkpt lat="44.89947" lon="1.3561">
        <ele>231.81</ele>
        <time>2022-08-10T14:21:22Z</time>
      </trkpt>
      <trkpt lat="44.89956" lon="1.35605">
        <ele>232.3</ele>
        <time>2022-08-10T14:21:24Z</time>
      </trkpt>
      <trkpt lat="44.8996" lon="1.35602">
        <ele>232.3</ele>
        <time>2022-08-10T14:21:25Z</time>
      </trkpt>
      <trkpt lat="44.89965" lon="1.35599">
        <ele>232.3</ele>
        <time>2022-08-10T14:21:26Z</time>
      </trkpt>
      <trkpt lat="44.89993" lon="1.35582">
        <ele>232.78</ele>
        <time>2022-08-10T14:21:32Z</time>
      </trkpt>
      <trkpt lat="44.89998" lon="1.35577">
        <ele>232.78</ele>
        <time>2022-08-10T14:21:33Z</time>
      </trkpt>
      <trkpt lat="44.90084" lon="1.35483">
        <ele>236.14</ele>
        <time>2022-08-10T14:21:52Z</time>
      </trkpt>
      <trkpt lat="44.90153" lon="1.35408">
        <ele>236.62</ele>
        <time>2022-08-10T14:22:09Z</time>
      </trkpt>
      <trkpt lat="44.90229" lon="1.35315">
        <ele>234.22</ele>
        <time>2022-08-10T14:22:27Z</time>
      </trkpt>
      <trkpt lat="44.90236" lon="1.353">
        <ele>234.22</ele>
        <time>2022-08-10T14:22:29Z</time>
      </trkpt>
      <trkpt lat="44.90239" lon="1.35291">
        <ele>233.74</ele>
        <time>2022-08-10T14:22:30Z</time>
      </trkpt>
      <trkpt lat="44.90244" lon="1.35275">
        <ele>233.74</ele>
        <time>2022-08-10T14:22:32Z</time>
      </trkpt>
      <trkpt lat="44.90246" lon="1.35265">
        <ele>233.26</ele>
        <time>2022-08-10T14:22:33Z</time>
      </trkpt>
      <trkpt lat="44.90247" lon="1.35255">
        <ele>232.78</ele>
        <time>2022-08-10T14:22:34Z</time>
      </trkpt>
      <trkpt lat="44.90257" lon="1.35129">
        <ele>231.33</ele>
        <time>2022-08-10T14:22:49Z</time>
      </trkpt>
      <trkpt lat="44.90263" lon="1.35059">
        <ele>231.81</ele>
        <time>2022-08-10T14:23:00Z</time>
      </trkpt>
      <trkpt lat="44.90263" lon="1.35053">
        <ele>231.81</ele>
        <time>2022-08-10T14:23:01Z</time>
      </trkpt>
      <trkpt lat="44.90264" lon="1.35047">
        <ele>231.81</ele>
        <time>2022-08-10T14:23:02Z</time>
      </trkpt>
      <trkpt lat="44.90264" lon="1.35041">
        <ele>231.81</ele>
        <time>2022-08-10T14:23:03Z</time>
      </trkpt>
      <trkpt lat="44.90265" lon="1.35034">
        <ele>231.81</ele>
        <time>2022-08-10T14:23:04Z</time>
      </trkpt>
      <trkpt lat="44.90266" lon="1.35028">
        <ele>231.81</ele>
        <time>2022-08-10T14:23:05Z</time>
      </trkpt>
      <trkpt lat="44.90266" lon="1.35022">
        <ele>231.81</ele>
        <time>2022-08-10T14:23:06Z</time>
      </trkpt>
      <trkpt lat="44.90274" lon="1.34987">
        <ele>231.81</ele>
        <time>2022-08-10T14:23:12Z</time>
      </trkpt>
      <trkpt lat="44.90276" lon="1.34981">
        <ele>231.81</ele>
        <time>2022-08-10T14:23:13Z</time>
      </trkpt>
      <trkpt lat="44.90278" lon="1.34975">
        <ele>231.81</ele>
        <time>2022-08-10T14:23:14Z</time>
      </trkpt>
      <trkpt lat="44.9028" lon="1.3497">
        <ele>231.81</ele>
        <time>2022-08-10T14:23:15Z</time>
      </trkpt>
      <trkpt lat="44.90283" lon="1.34965">
        <ele>231.81</ele>
        <time>2022-08-10T14:23:16Z</time>
      </trkpt>
      <trkpt lat="44.90333" lon="1.34909">
        <ele>233.74</ele>
        <time>2022-08-10T14:23:30Z</time>
      </trkpt>
      <trkpt lat="44.90337" lon="1.34906">
        <ele>234.22</ele>
        <time>2022-08-10T14:23:31Z</time>
      </trkpt>
      <trkpt lat="44.90393" lon="1.34855">
        <ele>237.1</ele>
        <time>2022-08-10T14:23:45Z</time>
      </trkpt>
      <trkpt lat="44.90414" lon="1.34836">
        <ele>238.06</ele>
        <time>2022-08-10T14:23:50Z</time>
      </trkpt>
      <trkpt lat="44.90418" lon="1.34834">
        <ele>238.54</ele>
        <time>2022-08-10T14:23:51Z</time>
      </trkpt>
      <trkpt lat="44.90422" lon="1.34831">
        <ele>239.02</ele>
        <time>2022-08-10T14:23:52Z</time>
      </trkpt>
      <trkpt lat="44.90482" lon="1.34814">
        <ele>241.43</ele>
        <time>2022-08-10T14:24:05Z</time>
      </trkpt>
      <trkpt lat="44.90486" lon="1.34811">
        <ele>241.43</ele>
        <time>2022-08-10T14:24:06Z</time>
      </trkpt>
      <trkpt lat="44.9049" lon="1.34808">
        <ele>241.91</ele>
        <time>2022-08-10T14:24:07Z</time>
      </trkpt>
      <trkpt lat="44.90494" lon="1.34804">
        <ele>241.91</ele>
        <time>2022-08-10T14:24:08Z</time>
      </trkpt>
      <trkpt lat="44.90506" lon="1.3479">
        <ele>241.91</ele>
        <time>2022-08-10T14:24:11Z</time>
      </trkpt>
      <trkpt lat="44.90537" lon="1.34739">
        <ele>243.83</ele>
        <time>2022-08-10T14:24:21Z</time>
      </trkpt>
      <trkpt lat="44.90544" lon="1.34731">
        <ele>243.83</ele>
        <time>2022-08-10T14:24:23Z</time>
      </trkpt>
      <trkpt lat="44.90548" lon="1.34727">
        <ele>244.31</ele>
        <time>2022-08-10T14:24:24Z</time>
      </trkpt>
      <trkpt lat="44.90552" lon="1.34723">
        <ele>244.31</ele>
        <time>2022-08-10T14:24:25Z</time>
      </trkpt>
      <trkpt lat="44.90556" lon="1.3472">
        <ele>244.79</ele>
        <time>2022-08-10T14:24:26Z</time>
      </trkpt>
      <trkpt lat="44.90561" lon="1.34717">
        <ele>244.79</ele>
        <time>2022-08-10T14:24:27Z</time>
      </trkpt>
      <trkpt lat="44.90584" lon="1.34703">
        <ele>245.75</ele>
        <time>2022-08-10T14:24:33Z</time>
      </trkpt>
      <trkpt lat="44.90595" lon="1.34693">
        <ele>246.72</ele>
        <time>2022-08-10T14:24:36Z</time>
      </trkpt>
      <trkpt lat="44.90653" lon="1.34631">
        <ele>248.16</ele>
        <time>2022-08-10T14:24:50Z</time>
      </trkpt>
      <trkpt lat="44.90717" lon="1.34582">
        <ele>250.56</ele>
        <time>2022-08-10T14:25:05Z</time>
      </trkpt>
      <trkpt lat="44.90725" lon="1.34578">
        <ele>250.56</ele>
        <time>2022-08-10T14:25:07Z</time>
      </trkpt>
      <trkpt lat="44.90729" lon="1.34576">
        <ele>250.56</ele>
        <time>2022-08-10T14:25:08Z</time>
      </trkpt>
      <trkpt lat="44.90733" lon="1.34574">
        <ele>250.56</ele>
        <time>2022-08-10T14:25:09Z</time>
      </trkpt>
      <trkpt lat="44.90791" lon="1.34554">
        <ele>250.56</ele>
        <time>2022-08-10T14:25:24Z</time>
      </trkpt>
      <trkpt lat="44.90835" lon="1.34523">
        <ele>252.96</ele>
        <time>2022-08-10T14:25:36Z</time>
      </trkpt>
      <trkpt lat="44.90838" lon="1.3452">
        <ele>252.96</ele>
        <time>2022-08-10T14:25:37Z</time>
      </trkpt>
      <trkpt lat="44.90896" lon="1.34468">
        <ele>253.44</ele>
        <time>2022-08-10T14:25:52Z</time>
      </trkpt>
      <trkpt lat="44.909" lon="1.34464">
        <ele>253.44</ele>
        <time>2022-08-10T14:25:53Z</time>
      </trkpt>
      <trkpt lat="44.90963" lon="1.34415">
        <ele>252.96</ele>
        <time>2022-08-10T14:26:08Z</time>
      </trkpt>
      <trkpt lat="44.90968" lon="1.34414">
        <ele>252.96</ele>
        <time>2022-08-10T14:26:09Z</time>
      </trkpt>
      <trkpt lat="44.90973" lon="1.34413">
        <ele>252.96</ele>
        <time>2022-08-10T14:26:10Z</time>
      </trkpt>
      <trkpt lat="44.90978" lon="1.34413">
        <ele>252.96</ele>
        <time>2022-08-10T14:26:11Z</time>
      </trkpt>
      <trkpt lat="44.90982" lon="1.34414">
        <ele>252.96</ele>
        <time>2022-08-10T14:26:12Z</time>
      </trkpt>
      <trkpt lat="44.90986" lon="1.34415">
        <ele>252.96</ele>
        <time>2022-08-10T14:26:13Z</time>
      </trkpt>
      <trkpt lat="44.91067" lon="1.34416">
        <ele>255.37</ele>
        <time>2022-08-10T14:26:31Z</time>
      </trkpt>
      <trkpt lat="44.91148" lon="1.34409">
        <ele>256.81</ele>
        <time>2022-08-10T14:26:48Z</time>
      </trkpt>
      <trkpt lat="44.91231" lon="1.34418">
        <ele>252.96</ele>
        <time>2022-08-10T14:27:02Z</time>
      </trkpt>
      <trkpt lat="44.9131" lon="1.34484">
        <ele>248.16</ele>
        <time>2022-08-10T14:27:14Z</time>
      </trkpt>
      <trkpt lat="44.914" lon="1.34592">
        <ele>244.79</ele>
        <time>2022-08-10T14:27:28Z</time>
      </trkpt>
      <trkpt lat="44.91407" lon="1.34598">
        <ele>244.79</ele>
        <time>2022-08-10T14:27:29Z</time>
      </trkpt>
      <trkpt lat="44.91432" lon="1.34611">
        <ele>244.31</ele>
        <time>2022-08-10T14:27:32Z</time>
      </trkpt>
      <trkpt lat="44.91441" lon="1.34613">
        <ele>243.83</ele>
        <time>2022-08-10T14:27:33Z</time>
      </trkpt>
      <trkpt lat="44.91449" lon="1.34615">
        <ele>243.35</ele>
        <time>2022-08-10T14:27:34Z</time>
      </trkpt>
      <trkpt lat="44.91545" lon="1.34597">
        <ele>241.91</ele>
        <time>2022-08-10T14:27:46Z</time>
      </trkpt>
      <trkpt lat="44.91552" lon="1.34594">
        <ele>241.91</ele>
        <time>2022-08-10T14:27:47Z</time>
      </trkpt>
      <trkpt lat="44.91557" lon="1.3459">
        <ele>241.91</ele>
        <time>2022-08-10T14:27:48Z</time>
      </trkpt>
      <trkpt lat="44.91563" lon="1.34586">
        <ele>241.91</ele>
        <time>2022-08-10T14:27:49Z</time>
      </trkpt>
      <trkpt lat="44.91568" lon="1.34581">
        <ele>241.91</ele>
        <time>2022-08-10T14:27:50Z</time>
      </trkpt>
      <trkpt lat="44.91634" lon="1.3451">
        <ele>243.83</ele>
        <time>2022-08-10T14:28:06Z</time>
      </trkpt>
      <trkpt lat="44.91703" lon="1.34442">
        <ele>244.79</ele>
        <time>2022-08-10T14:28:22Z</time>
      </trkpt>
      <trkpt lat="44.91708" lon="1.3444">
        <ele>244.79</ele>
        <time>2022-08-10T14:28:23Z</time>
      </trkpt>
      <trkpt lat="44.91723" lon="1.34437">
        <ele>244.79</ele>
        <time>2022-08-10T14:28:26Z</time>
      </trkpt>
      <trkpt lat="44.91728" lon="1.34437">
        <ele>244.31</ele>
        <time>2022-08-10T14:28:27Z</time>
      </trkpt>
      <trkpt lat="44.91733" lon="1.34438">
        <ele>244.31</ele>
        <time>2022-08-10T14:28:28Z</time>
      </trkpt>
      <trkpt lat="44.91739" lon="1.34439">
        <ele>244.31</ele>
        <time>2022-08-10T14:28:29Z</time>
      </trkpt>
      <trkpt lat="44.91744" lon="1.34441">
        <ele>243.83</ele>
        <time>2022-08-10T14:28:30Z</time>
      </trkpt>
      <trkpt lat="44.91749" lon="1.34444">
        <ele>243.83</ele>
        <time>2022-08-10T14:28:31Z</time>
      </trkpt>
      <trkpt lat="44.91754" lon="1.34447">
        <ele>243.83</ele>
        <time>2022-08-10T14:28:32Z</time>
      </trkpt>
      <trkpt lat="44.91758" lon="1.3445">
        <ele>243.35</ele>
        <time>2022-08-10T14:28:33Z</time>
      </trkpt>
      <trkpt lat="44.91763" lon="1.34454">
        <ele>243.35</ele>
        <time>2022-08-10T14:28:34Z</time>
      </trkpt>
      <trkpt lat="44.91767" lon="1.34458">
        <ele>242.87</ele>
        <time>2022-08-10T14:28:35Z</time>
      </trkpt>
      <trkpt lat="44.91827" lon="1.34519">
        <ele>239.99</ele>
        <time>2022-08-10T14:28:46Z</time>
      </trkpt>
      <trkpt lat="44.91932" lon="1.34557">
        <ele>237.1</ele>
        <time>2022-08-10T14:29:00Z</time>
      </trkpt>
      <trkpt lat="44.91951" lon="1.34556">
        <ele>237.1</ele>
        <time>2022-08-10T14:29:03Z</time>
      </trkpt>
      <trkpt lat="44.92003" lon="1.34532">
        <ele>239.02</ele>
        <time>2022-08-10T14:29:15Z</time>
      </trkpt>
      <trkpt lat="44.9205" lon="1.34495">
        <ele>240.47</ele>
        <time>2022-08-10T14:29:30Z</time>
      </trkpt>
      <trkpt lat="44.921" lon="1.3445">
        <ele>245.27</ele>
        <time>2022-08-10T14:29:47Z</time>
      </trkpt>
      <trkpt lat="44.92142" lon="1.34408">
        <ele>252</ele>
        <time>2022-08-10T14:30:03Z</time>
      </trkpt>
      <trkpt lat="44.92193" lon="1.34361">
        <ele>255.37</ele>
        <time>2022-08-10T14:30:21Z</time>
      </trkpt>
      <trkpt lat="44.92239" lon="1.34319">
        <ele>255.85</ele>
        <time>2022-08-10T14:30:37Z</time>
      </trkpt>
      <trkpt lat="44.92285" lon="1.34273">
        <ele>257.77</ele>
        <time>2022-08-10T14:30:52Z</time>
      </trkpt>
      <trkpt lat="44.92331" lon="1.34244">
        <ele>258.25</ele>
        <time>2022-08-10T14:31:04Z</time>
      </trkpt>
      <trkpt lat="44.92335" lon="1.34244">
        <ele>258.25</ele>
        <time>2022-08-10T14:31:05Z</time>
      </trkpt>
      <trkpt lat="44.92352" lon="1.34244">
        <ele>258.25</ele>
        <time>2022-08-10T14:31:09Z</time>
      </trkpt>
      <trkpt lat="44.92356" lon="1.34246">
        <ele>258.25</ele>
        <time>2022-08-10T14:31:10Z</time>
      </trkpt>
      <trkpt lat="44.92361" lon="1.34247">
        <ele>258.25</ele>
        <time>2022-08-10T14:31:11Z</time>
      </trkpt>
      <trkpt lat="44.92381" lon="1.3426">
        <ele>258.25</ele>
        <time>2022-08-10T14:31:16Z</time>
      </trkpt>
      <trkpt lat="44.92398" lon="1.34276">
        <ele>258.25</ele>
        <time>2022-08-10T14:31:20Z</time>
      </trkpt>
      <trkpt lat="44.92409" lon="1.3429">
        <ele>258.25</ele>
        <time>2022-08-10T14:31:23Z</time>
      </trkpt>
      <trkpt lat="44.92424" lon="1.3432">
        <ele>258.25</ele>
        <time>2022-08-10T14:31:28Z</time>
      </trkpt>
      <trkpt lat="44.92431" lon="1.34341">
        <ele>258.73</ele>
        <time>2022-08-10T14:31:31Z</time>
      </trkpt>
      <trkpt lat="44.92433" lon="1.34348">
        <ele>258.25</ele>
        <time>2022-08-10T14:31:32Z</time>
      </trkpt>
      <trkpt lat="44.92444" lon="1.34463">
        <ele>259.21</ele>
        <time>2022-08-10T14:31:49Z</time>
      </trkpt>
      <trkpt lat="44.92444" lon="1.3447">
        <ele>259.21</ele>
        <time>2022-08-10T14:31:50Z</time>
      </trkpt>
      <trkpt lat="44.9245" lon="1.34578">
        <ele>262.1</ele>
        <time>2022-08-10T14:32:08Z</time>
      </trkpt>
      <trkpt lat="44.92458" lon="1.34672">
        <ele>264.5</ele>
        <time>2022-08-10T14:32:25Z</time>
      </trkpt>
      <trkpt lat="44.9246" lon="1.34677">
        <ele>264.5</ele>
        <time>2022-08-10T14:32:26Z</time>
      </trkpt>
      <trkpt lat="44.92462" lon="1.34682">
        <ele>264.5</ele>
        <time>2022-08-10T14:32:27Z</time>
      </trkpt>
      <trkpt lat="44.92465" lon="1.34687">
        <ele>264.5</ele>
        <time>2022-08-10T14:32:28Z</time>
      </trkpt>
      <trkpt lat="44.92468" lon="1.34692">
        <ele>264.5</ele>
        <time>2022-08-10T14:32:29Z</time>
      </trkpt>
      <trkpt lat="44.92526" lon="1.34749">
        <ele>265.46</ele>
        <time>2022-08-10T14:32:45Z</time>
      </trkpt>
      <trkpt lat="44.92604" lon="1.34815">
        <ele>267.86</ele>
        <time>2022-08-10T14:33:04Z</time>
      </trkpt>
      <trkpt lat="44.92631" lon="1.34838">
        <ele>269.31</ele>
        <time>2022-08-10T14:33:11Z</time>
      </trkpt>
      <trkpt lat="44.92635" lon="1.34841">
        <ele>269.79</ele>
        <time>2022-08-10T14:33:12Z</time>
      </trkpt>
      <trkpt lat="44.92672" lon="1.34872">
        <ele>272.67</ele>
        <time>2022-08-10T14:33:22Z</time>
      </trkpt>
      <trkpt lat="44.92675" lon="1.34876">
        <ele>272.67</ele>
        <time>2022-08-10T14:33:23Z</time>
      </trkpt>
      <trkpt lat="44.92738" lon="1.34929">
        <ele>275.07</ele>
        <time>2022-08-10T14:33:40Z</time>
      </trkpt>
      <trkpt lat="44.92818" lon="1.34997">
        <ele>275.56</ele>
        <time>2022-08-10T14:34:00Z</time>
      </trkpt>
      <trkpt lat="44.92835" lon="1.35011">
        <ele>276.04</ele>
        <time>2022-08-10T14:34:04Z</time>
      </trkpt>
      <trkpt lat="44.92839" lon="1.35015">
        <ele>276.52</ele>
        <time>2022-08-10T14:34:05Z</time>
      </trkpt>
      <trkpt lat="44.92906" lon="1.3507">
        <ele>277</ele>
        <time>2022-08-10T14:34:20Z</time>
      </trkpt>
      <trkpt lat="44.92988" lon="1.3514">
        <ele>278.44</ele>
        <time>2022-08-10T14:34:40Z</time>
      </trkpt>
      <trkpt lat="44.93003" lon="1.35154">
        <ele>278.44</ele>
        <time>2022-08-10T14:34:44Z</time>
      </trkpt>
      <trkpt lat="44.93031" lon="1.35177">
        <ele>277.96</ele>
        <time>2022-08-10T14:34:51Z</time>
      </trkpt>
      <trkpt lat="44.93035" lon="1.35181">
        <ele>277.96</ele>
        <time>2022-08-10T14:34:52Z</time>
      </trkpt>
      <trkpt lat="44.93046" lon="1.35191">
        <ele>277.96</ele>
        <time>2022-08-10T14:34:55Z</time>
      </trkpt>
      <trkpt lat="44.931" lon="1.35236">
        <ele>279.88</ele>
        <time>2022-08-10T14:35:10Z</time>
      </trkpt>
      <trkpt lat="44.93155" lon="1.35258">
        <ele>281.8</ele>
        <time>2022-08-10T14:35:24Z</time>
      </trkpt>
      <trkpt lat="44.93159" lon="1.35258">
        <ele>281.8</ele>
        <time>2022-08-10T14:35:25Z</time>
      </trkpt>
      <trkpt lat="44.9323" lon="1.35238">
        <ele>287.09</ele>
        <time>2022-08-10T14:35:43Z</time>
      </trkpt>
      <trkpt lat="44.93238" lon="1.35233">
        <ele>287.57</ele>
        <time>2022-08-10T14:35:45Z</time>
      </trkpt>
      <trkpt lat="44.93311" lon="1.35182">
        <ele>290.46</ele>
        <time>2022-08-10T14:36:03Z</time>
      </trkpt>
      <trkpt lat="44.93333" lon="1.35171">
        <ele>290.94</ele>
        <time>2022-08-10T14:36:08Z</time>
      </trkpt>
      <trkpt lat="44.93384" lon="1.3516">
        <ele>291.42</ele>
        <time>2022-08-10T14:36:19Z</time>
      </trkpt>
      <trkpt lat="44.93389" lon="1.35161">
        <ele>291.42</ele>
        <time>2022-08-10T14:36:20Z</time>
      </trkpt>
      <trkpt lat="44.93403" lon="1.35164">
        <ele>291.42</ele>
        <time>2022-08-10T14:36:23Z</time>
      </trkpt>
      <trkpt lat="44.93425" lon="1.35174">
        <ele>291.9</ele>
        <time>2022-08-10T14:36:28Z</time>
      </trkpt>
      <trkpt lat="44.9349" lon="1.35213">
        <ele>291.9</ele>
        <time>2022-08-10T14:36:43Z</time>
      </trkpt>
      <trkpt lat="44.93554" lon="1.35254">
        <ele>290.94</ele>
        <time>2022-08-10T14:36:58Z</time>
      </trkpt>
      <trkpt lat="44.93625" lon="1.35299">
        <ele>290.46</ele>
        <time>2022-08-10T14:37:14Z</time>
      </trkpt>
      <trkpt lat="44.93655" lon="1.35317">
        <ele>290.46</ele>
        <time>2022-08-10T14:37:21Z</time>
      </trkpt>
      <trkpt lat="44.93658" lon="1.35321">
        <ele>290.46</ele>
        <time>2022-08-10T14:37:22Z</time>
      </trkpt>
      <trkpt lat="44.93661" lon="1.35326">
        <ele>290.46</ele>
        <time>2022-08-10T14:37:23Z</time>
      </trkpt>
      <trkpt lat="44.93663" lon="1.35333">
        <ele>290.46</ele>
        <time>2022-08-10T14:37:24Z</time>
      </trkpt>
      <trkpt lat="44.93664" lon="1.35338">
        <ele>290.46</ele>
        <time>2022-08-10T14:37:25Z</time>
      </trkpt>
      <trkpt lat="44.93666" lon="1.35344">
        <ele>290.46</ele>
        <time>2022-08-10T14:37:26Z</time>
      </trkpt>
      <trkpt lat="44.93668" lon="1.35351">
        <ele>290.46</ele>
        <time>2022-08-10T14:37:27Z</time>
      </trkpt>
      <trkpt lat="44.93671" lon="1.35356">
        <ele>290.46</ele>
        <time>2022-08-10T14:37:28Z</time>
      </trkpt>
      <trkpt lat="44.93674" lon="1.35362">
        <ele>290.46</ele>
        <time>2022-08-10T14:37:29Z</time>
      </trkpt>
      <trkpt lat="44.93677" lon="1.35367">
        <ele>290.46</ele>
        <time>2022-08-10T14:37:30Z</time>
      </trkpt>
      <trkpt lat="44.9368" lon="1.35373">
        <ele>290.46</ele>
        <time>2022-08-10T14:37:31Z</time>
      </trkpt>
      <trkpt lat="44.93682" lon="1.35379">
        <ele>290.46</ele>
        <time>2022-08-10T14:37:32Z</time>
      </trkpt>
      <trkpt lat="44.93711" lon="1.35504">
        <ele>289.49</ele>
        <time>2022-08-10T14:37:50Z</time>
      </trkpt>
      <trkpt lat="44.93757" lon="1.35642">
        <ele>287.09</ele>
        <time>2022-08-10T14:38:07Z</time>
      </trkpt>
      <trkpt lat="44.93759" lon="1.35653">
        <ele>286.61</ele>
        <time>2022-08-10T14:38:08Z</time>
      </trkpt>
      <trkpt lat="44.93761" lon="1.35663">
        <ele>286.61</ele>
        <time>2022-08-10T14:38:09Z</time>
      </trkpt>
      <trkpt lat="44.93762" lon="1.35675">
        <ele>286.13</ele>
        <time>2022-08-10T14:38:10Z</time>
      </trkpt>
      <trkpt lat="44.93762" lon="1.35687">
        <ele>286.13</ele>
        <time>2022-08-10T14:38:11Z</time>
      </trkpt>
      <trkpt lat="44.9376" lon="1.357">
        <ele>285.65</ele>
        <time>2022-08-10T14:38:12Z</time>
      </trkpt>
      <trkpt lat="44.93758" lon="1.35712">
        <ele>285.17</ele>
        <time>2022-08-10T14:38:13Z</time>
      </trkpt>
      <trkpt lat="44.93756" lon="1.35724">
        <ele>285.17</ele>
        <time>2022-08-10T14:38:14Z</time>
      </trkpt>
      <trkpt lat="44.93717" lon="1.35924">
        <ele>277.96</ele>
        <time>2022-08-10T14:38:29Z</time>
      </trkpt>
      <trkpt lat="44.93685" lon="1.36101">
        <ele>275.56</ele>
        <time>2022-08-10T14:38:44Z</time>
      </trkpt>
      <trkpt lat="44.9367" lon="1.36169">
        <ele>273.63</ele>
        <time>2022-08-10T14:38:50Z</time>
      </trkpt>
      <trkpt lat="44.93666" lon="1.3618">
        <ele>273.15</ele>
        <time>2022-08-10T14:38:51Z</time>
      </trkpt>
      <trkpt lat="44.9366" lon="1.36189">
        <ele>273.15</ele>
        <time>2022-08-10T14:38:52Z</time>
      </trkpt>
      <trkpt lat="44.93653" lon="1.36196">
        <ele>272.67</ele>
        <time>2022-08-10T14:38:53Z</time>
      </trkpt>
      <trkpt lat="44.93646" lon="1.36202">
        <ele>272.67</ele>
        <time>2022-08-10T14:38:54Z</time>
      </trkpt>
      <trkpt lat="44.93638" lon="1.36207">
        <ele>272.67</ele>
        <time>2022-08-10T14:38:55Z</time>
      </trkpt>
      <trkpt lat="44.93577" lon="1.36247">
        <ele>274.59</ele>
        <time>2022-08-10T14:39:06Z</time>
      </trkpt>
      <trkpt lat="44.93539" lon="1.36267">
        <ele>277.48</ele>
        <time>2022-08-10T14:39:17Z</time>
      </trkpt>
      <trkpt lat="44.93493" lon="1.36287">
        <ele>278.44</ele>
        <time>2022-08-10T14:39:31Z</time>
      </trkpt>
      <trkpt lat="44.93463" lon="1.36323">
        <ele>280.84</ele>
        <time>2022-08-10T14:39:45Z</time>
      </trkpt>
      <trkpt lat="44.93427" lon="1.36356">
        <ele>284.69</ele>
        <time>2022-08-10T14:40:02Z</time>
      </trkpt>
      <trkpt lat="44.93394" lon="1.36377">
        <ele>287.09</ele>
        <time>2022-08-10T14:40:17Z</time>
      </trkpt>
      <trkpt lat="44.9336" lon="1.36406">
        <ele>289.01</ele>
        <time>2022-08-10T14:40:33Z</time>
      </trkpt>
      <trkpt lat="44.93327" lon="1.36456">
        <ele>290.94</ele>
        <time>2022-08-10T14:40:51Z</time>
      </trkpt>
      <trkpt lat="44.93301" lon="1.36518">
        <ele>292.86</ele>
        <time>2022-08-10T14:41:08Z</time>
      </trkpt>
      <trkpt lat="44.93267" lon="1.36603">
        <ele>295.26</ele>
        <time>2022-08-10T14:41:28Z</time>
      </trkpt>
      <trkpt lat="44.93238" lon="1.36677">
        <ele>296.7</ele>
        <time>2022-08-10T14:41:44Z</time>
      </trkpt>
      <trkpt lat="44.93217" lon="1.36756">
        <ele>299.11</ele>
        <time>2022-08-10T14:42:01Z</time>
      </trkpt>
      <trkpt lat="44.9321" lon="1.36854">
        <ele>301.03</ele>
        <time>2022-08-10T14:42:20Z</time>
      </trkpt>
      <trkpt lat="44.93204" lon="1.36965">
        <ele>303.43</ele>
        <time>2022-08-10T14:42:41Z</time>
      </trkpt>
      <trkpt lat="44.93199" lon="1.3706">
        <ele>304.88</ele>
        <time>2022-08-10T14:42:58Z</time>
      </trkpt>
      <trkpt lat="44.93193" lon="1.37157">
        <ele>306.8</ele>
        <time>2022-08-10T14:43:15Z</time>
      </trkpt>
      <trkpt lat="44.93186" lon="1.37287">
        <ele>305.84</ele>
        <time>2022-08-10T14:43:33Z</time>
      </trkpt>
      <trkpt lat="44.93177" lon="1.37428">
        <ele>300.07</ele>
        <time>2022-08-10T14:43:45Z</time>
      </trkpt>
      <trkpt lat="44.93166" lon="1.3764">
        <ele>289.97</ele>
        <time>2022-08-10T14:43:58Z</time>
      </trkpt>
      <trkpt lat="44.93174" lon="1.37848">
        <ele>277</ele>
        <time>2022-08-10T14:44:09Z</time>
      </trkpt>
      <trkpt lat="44.93181" lon="1.37944">
        <ele>270.27</ele>
        <time>2022-08-10T14:44:15Z</time>
      </trkpt>
      <trkpt lat="44.93186" lon="1.37959">
        <ele>268.83</ele>
        <time>2022-08-10T14:44:16Z</time>
      </trkpt>
      <trkpt lat="44.93192" lon="1.37973">
        <ele>267.86</ele>
        <time>2022-08-10T14:44:17Z</time>
      </trkpt>
      <trkpt lat="44.93199" lon="1.37987">
        <ele>266.9</ele>
        <time>2022-08-10T14:44:18Z</time>
      </trkpt>
      <trkpt lat="44.93206" lon="1.38">
        <ele>265.94</ele>
        <time>2022-08-10T14:44:19Z</time>
      </trkpt>
      <trkpt lat="44.93214" lon="1.38012">
        <ele>264.98</ele>
        <time>2022-08-10T14:44:20Z</time>
      </trkpt>
      <trkpt lat="44.9322" lon="1.38023">
        <ele>263.54</ele>
        <time>2022-08-10T14:44:21Z</time>
      </trkpt>
      <trkpt lat="44.93223" lon="1.38034">
        <ele>262.58</ele>
        <time>2022-08-10T14:44:22Z</time>
      </trkpt>
      <trkpt lat="44.93224" lon="1.38047">
        <ele>262.1</ele>
        <time>2022-08-10T14:44:23Z</time>
      </trkpt>
      <trkpt lat="44.93222" lon="1.3806">
        <ele>261.14</ele>
        <time>2022-08-10T14:44:24Z</time>
      </trkpt>
      <trkpt lat="44.93219" lon="1.38074">
        <ele>260.17</ele>
        <time>2022-08-10T14:44:25Z</time>
      </trkpt>
      <trkpt lat="44.93216" lon="1.38088">
        <ele>258.73</ele>
        <time>2022-08-10T14:44:26Z</time>
      </trkpt>
      <trkpt lat="44.93215" lon="1.38103">
        <ele>257.29</ele>
        <time>2022-08-10T14:44:27Z</time>
      </trkpt>
      <trkpt lat="44.93215" lon="1.38119">
        <ele>256.33</ele>
        <time>2022-08-10T14:44:28Z</time>
      </trkpt>
      <trkpt lat="44.93235" lon="1.38309">
        <ele>241.91</ele>
        <time>2022-08-10T14:44:39Z</time>
      </trkpt>
      <trkpt lat="44.9324" lon="1.38323">
        <ele>240.47</ele>
        <time>2022-08-10T14:44:40Z</time>
      </trkpt>
      <trkpt lat="44.93245" lon="1.38336">
        <ele>239.02</ele>
        <time>2022-08-10T14:44:41Z</time>
      </trkpt>
      <trkpt lat="44.93249" lon="1.38347">
        <ele>238.06</ele>
        <time>2022-08-10T14:44:42Z</time>
      </trkpt>
      <trkpt lat="44.93251" lon="1.38359">
        <ele>237.1</ele>
        <time>2022-08-10T14:44:43Z</time>
      </trkpt>
      <trkpt lat="44.93249" lon="1.38369">
        <ele>236.14</ele>
        <time>2022-08-10T14:44:44Z</time>
      </trkpt>
      <trkpt lat="44.93244" lon="1.38379">
        <ele>235.66</ele>
        <time>2022-08-10T14:44:45Z</time>
      </trkpt>
      <trkpt lat="44.93239" lon="1.38389">
        <ele>234.7</ele>
        <time>2022-08-10T14:44:46Z</time>
      </trkpt>
      <trkpt lat="44.93234" lon="1.38401">
        <ele>233.74</ele>
        <time>2022-08-10T14:44:47Z</time>
      </trkpt>
      <trkpt lat="44.9323" lon="1.38414">
        <ele>232.78</ele>
        <time>2022-08-10T14:44:48Z</time>
      </trkpt>
      <trkpt lat="44.93227" lon="1.38428">
        <ele>231.81</ele>
        <time>2022-08-10T14:44:49Z</time>
      </trkpt>
      <trkpt lat="44.93224" lon="1.38443">
        <ele>230.37</ele>
        <time>2022-08-10T14:44:50Z</time>
      </trkpt>
      <trkpt lat="44.93221" lon="1.38459">
        <ele>229.41</ele>
        <time>2022-08-10T14:44:51Z</time>
      </trkpt>
      <trkpt lat="44.93194" lon="1.3866">
        <ele>216.91</ele>
        <time>2022-08-10T14:45:02Z</time>
      </trkpt>
      <trkpt lat="44.9319" lon="1.38851">
        <ele>204.42</ele>
        <time>2022-08-10T14:45:11Z</time>
      </trkpt>
      <trkpt lat="44.93193" lon="1.38872">
        <ele>202.98</ele>
        <time>2022-08-10T14:45:12Z</time>
      </trkpt>
      <trkpt lat="44.93198" lon="1.38891">
        <ele>201.53</ele>
        <time>2022-08-10T14:45:13Z</time>
      </trkpt>
      <trkpt lat="44.93211" lon="1.38928">
        <ele>198.65</ele>
        <time>2022-08-10T14:45:15Z</time>
      </trkpt>
      <trkpt lat="44.93219" lon="1.38944">
        <ele>197.21</ele>
        <time>2022-08-10T14:45:16Z</time>
      </trkpt>
      <trkpt lat="44.93242" lon="1.38988">
        <ele>193.36</ele>
        <time>2022-08-10T14:45:19Z</time>
      </trkpt>
      <trkpt lat="44.93246" lon="1.39005">
        <ele>192.4</ele>
        <time>2022-08-10T14:45:20Z</time>
      </trkpt>
      <trkpt lat="44.93253" lon="1.39038">
        <ele>190.96</ele>
        <time>2022-08-10T14:45:22Z</time>
      </trkpt>
      <trkpt lat="44.93258" lon="1.39053">
        <ele>190</ele>
        <time>2022-08-10T14:45:23Z</time>
      </trkpt>
      <trkpt lat="44.93266" lon="1.39067">
        <ele>189.04</ele>
        <time>2022-08-10T14:45:24Z</time>
      </trkpt>
      <trkpt lat="44.93316" lon="1.39157">
        <ele>182.79</ele>
        <time>2022-08-10T14:45:30Z</time>
      </trkpt>
      <trkpt lat="44.93323" lon="1.39175">
        <ele>181.83</ele>
        <time>2022-08-10T14:45:31Z</time>
      </trkpt>
      <trkpt lat="44.93328" lon="1.39194">
        <ele>180.38</ele>
        <time>2022-08-10T14:45:32Z</time>
      </trkpt>
      <trkpt lat="44.93332" lon="1.39215">
        <ele>179.42</ele>
        <time>2022-08-10T14:45:33Z</time>
      </trkpt>
      <trkpt lat="44.93334" lon="1.39234">
        <ele>178.46</ele>
        <time>2022-08-10T14:45:34Z</time>
      </trkpt>
      <trkpt lat="44.93336" lon="1.39256">
        <ele>177.02</ele>
        <time>2022-08-10T14:45:35Z</time>
      </trkpt>
      <trkpt lat="44.9332" lon="1.39421">
        <ele>167.89</ele>
        <time>2022-08-10T14:45:43Z</time>
      </trkpt>
      <trkpt lat="44.93291" lon="1.39602">
        <ele>162.12</ele>
        <time>2022-08-10T14:45:53Z</time>
      </trkpt>
      <trkpt lat="44.93269" lon="1.39778">
        <ele>157.31</ele>
        <time>2022-08-10T14:46:04Z</time>
      </trkpt>
      <trkpt lat="44.93269" lon="1.39795">
        <ele>156.83</ele>
        <time>2022-08-10T14:46:05Z</time>
      </trkpt>
      <trkpt lat="44.93273" lon="1.39921">
        <ele>155.87</ele>
        <time>2022-08-10T14:46:14Z</time>
      </trkpt>
      <trkpt lat="44.93276" lon="1.39933">
        <ele>155.39</ele>
        <time>2022-08-10T14:46:15Z</time>
      </trkpt>
      <trkpt lat="44.9328" lon="1.39944">
        <ele>155.39</ele>
        <time>2022-08-10T14:46:16Z</time>
      </trkpt>
      <trkpt lat="44.93335" lon="1.40056">
        <ele>152.51</ele>
        <time>2022-08-10T14:46:27Z</time>
      </trkpt>
      <trkpt lat="44.93342" lon="1.40064">
        <ele>152.03</ele>
        <time>2022-08-10T14:46:28Z</time>
      </trkpt>
      <trkpt lat="44.93349" lon="1.40071">
        <ele>152.03</ele>
        <time>2022-08-10T14:46:29Z</time>
      </trkpt>
      <trkpt lat="44.93357" lon="1.40076">
        <ele>151.54</ele>
        <time>2022-08-10T14:46:30Z</time>
      </trkpt>
      <trkpt lat="44.93365" lon="1.40081">
        <ele>151.54</ele>
        <time>2022-08-10T14:46:31Z</time>
      </trkpt>
      <trkpt lat="44.93472" lon="1.40148">
        <ele>149.62</ele>
        <time>2022-08-10T14:46:45Z</time>
      </trkpt>
      <trkpt lat="44.93514" lon="1.40219">
        <ele>148.18</ele>
        <time>2022-08-10T14:46:55Z</time>
      </trkpt>
      <trkpt lat="44.93583" lon="1.40294">
        <ele>148.18</ele>
        <time>2022-08-10T14:47:10Z</time>
      </trkpt>
      <trkpt lat="44.93648" lon="1.40351">
        <ele>149.14</ele>
        <time>2022-08-10T14:47:24Z</time>
      </trkpt>
      <trkpt lat="44.93736" lon="1.40401">
        <ele>148.66</ele>
        <time>2022-08-10T14:47:41Z</time>
      </trkpt>
      <trkpt lat="44.93816" lon="1.4047">
        <ele>146.26</ele>
        <time>2022-08-10T14:47:55Z</time>
      </trkpt>
      <trkpt lat="44.9389" lon="1.40562">
        <ele>145.3</ele>
        <time>2022-08-10T14:48:10Z</time>
      </trkpt>
      <trkpt lat="44.93952" lon="1.40659">
        <ele>145.3</ele>
        <time>2022-08-10T14:48:25Z</time>
      </trkpt>
      <trkpt lat="44.9396" lon="1.40671">
        <ele>144.82</ele>
        <time>2022-08-10T14:48:27Z</time>
      </trkpt>
      <trkpt lat="44.93964" lon="1.40678">
        <ele>144.82</ele>
        <time>2022-08-10T14:48:28Z</time>
      </trkpt>
      <trkpt lat="44.94028" lon="1.40774">
        <ele>142.89</ele>
        <time>2022-08-10T14:48:44Z</time>
      </trkpt>
      <trkpt lat="44.94032" lon="1.4078">
        <ele>142.41</ele>
        <time>2022-08-10T14:48:45Z</time>
      </trkpt>
      <trkpt lat="44.94106" lon="1.40848">
        <ele>138.57</ele>
        <time>2022-08-10T14:48:57Z</time>
      </trkpt>
      <trkpt lat="44.94127" lon="1.40871">
        <ele>137.13</ele>
        <time>2022-08-10T14:49:00Z</time>
      </trkpt>
      <trkpt lat="44.94164" lon="1.40907">
        <ele>135.2</ele>
        <time>2022-08-10T14:49:05Z</time>
      </trkpt>
      <trkpt lat="44.94252" lon="1.40965">
        <ele>130.4</ele>
        <time>2022-08-10T14:49:17Z</time>
      </trkpt>
      <trkpt lat="44.94322" lon="1.41003">
        <ele>134.24</ele>
        <time>2022-08-10T14:49:30Z</time>
      </trkpt>
      <trkpt lat="44.94349" lon="1.41021">
        <ele>138.09</ele>
        <time>2022-08-10T14:49:42Z</time>
      </trkpt>
      <trkpt lat="44.94349" lon="1.41022">
        <ele>137.61</ele>
        <time>2022-08-10T14:50:06Z</time>
      </trkpt>
      <trkpt lat="44.9435" lon="1.41023">
        <ele>137.13</ele>
        <time>2022-08-10T14:50:20Z</time>
      </trkpt>
      <trkpt lat="44.94351" lon="1.41025">
        <ele>137.61</ele>
        <time>2022-08-10T14:50:21Z</time>
      </trkpt>
      <trkpt lat="44.94341" lon="1.41071">
        <ele>138.09</ele>
        <time>2022-08-10T14:50:33Z</time>
      </trkpt>
      <trkpt lat="44.94324" lon="1.41147">
        <ele>137.61</ele>
        <time>2022-08-10T14:50:47Z</time>
      </trkpt>
      <trkpt lat="44.9432" lon="1.41165">
        <ele>137.61</ele>
        <time>2022-08-10T14:50:50Z</time>
      </trkpt>
      <trkpt lat="44.94285" lon="1.41278">
        <ele>137.61</ele>
        <time>2022-08-10T14:51:05Z</time>
      </trkpt>
      <trkpt lat="44.9422" lon="1.41404">
        <ele>137.61</ele>
        <time>2022-08-10T14:51:22Z</time>
      </trkpt>
      <trkpt lat="44.94129" lon="1.41497">
        <ele>137.13</ele>
        <time>2022-08-10T14:51:39Z</time>
      </trkpt>
      <trkpt lat="44.94036" lon="1.41614">
        <ele>136.64</ele>
        <time>2022-08-10T14:51:56Z</time>
      </trkpt>
      <trkpt lat="44.94001" lon="1.41735">
        <ele>137.13</ele>
        <time>2022-08-10T14:52:08Z</time>
      </trkpt>
      <trkpt lat="44.93964" lon="1.41898">
        <ele>136.64</ele>
        <time>2022-08-10T14:52:25Z</time>
      </trkpt>
      <trkpt lat="44.93965" lon="1.42023">
        <ele>136.16</ele>
        <time>2022-08-10T14:52:38Z</time>
      </trkpt>
      <trkpt lat="44.93958" lon="1.42191">
        <ele>135.68</ele>
        <time>2022-08-10T14:52:56Z</time>
      </trkpt>
      <trkpt lat="44.93942" lon="1.42378">
        <ele>137.13</ele>
        <time>2022-08-10T14:53:16Z</time>
      </trkpt>
      <trkpt lat="44.93907" lon="1.42547">
        <ele>136.64</ele>
        <time>2022-08-10T14:53:34Z</time>
      </trkpt>
      <trkpt lat="44.93889" lon="1.42695">
        <ele>135.68</ele>
        <time>2022-08-10T14:53:49Z</time>
      </trkpt>
      <trkpt lat="44.9388" lon="1.42858">
        <ele>134.24</ele>
        <time>2022-08-10T14:54:06Z</time>
      </trkpt>
      <trkpt lat="44.93876" lon="1.42906">
        <ele>134.24</ele>
        <time>2022-08-10T14:54:11Z</time>
      </trkpt>
      <trkpt lat="44.93886" lon="1.42973">
        <ele>134.24</ele>
        <time>2022-08-10T14:54:18Z</time>
      </trkpt>
      <trkpt lat="44.93886" lon="1.42983">
        <ele>134.24</ele>
        <time>2022-08-10T14:54:19Z</time>
      </trkpt>
      <trkpt lat="44.93886" lon="1.43003">
        <ele>134.24</ele>
        <time>2022-08-10T14:54:21Z</time>
      </trkpt>
      <trkpt lat="44.93886" lon="1.43013">
        <ele>133.76</ele>
        <time>2022-08-10T14:54:22Z</time>
      </trkpt>
      <trkpt lat="44.93881" lon="1.43052">
        <ele>133.76</ele>
        <time>2022-08-10T14:54:26Z</time>
      </trkpt>
      <trkpt lat="44.9385" lon="1.43181">
        <ele>132.8</ele>
        <time>2022-08-10T14:54:39Z</time>
      </trkpt>
      <trkpt lat="44.93833" lon="1.4331">
        <ele>131.36</ele>
        <time>2022-08-10T14:54:52Z</time>
      </trkpt>
      <trkpt lat="44.9385" lon="1.43453">
        <ele>128.47</ele>
        <time>2022-08-10T14:55:07Z</time>
      </trkpt>
      <trkpt lat="44.93869" lon="1.43564">
        <ele>128.47</ele>
        <time>2022-08-10T14:55:19Z</time>
      </trkpt>
      <trkpt lat="44.93868" lon="1.43572">
        <ele>127.99</ele>
        <time>2022-08-10T14:55:20Z</time>
      </trkpt>
      <trkpt lat="44.93866" lon="1.43581">
        <ele>127.99</ele>
        <time>2022-08-10T14:55:21Z</time>
      </trkpt>
      <trkpt lat="44.93862" lon="1.43588">
        <ele>127.99</ele>
        <time>2022-08-10T14:55:22Z</time>
      </trkpt>
      <trkpt lat="44.93858" lon="1.43595">
        <ele>127.99</ele>
        <time>2022-08-10T14:55:23Z</time>
      </trkpt>
      <trkpt lat="44.93853" lon="1.436">
        <ele>128.47</ele>
        <time>2022-08-10T14:55:24Z</time>
      </trkpt>
      <trkpt lat="44.93847" lon="1.43604">
        <ele>128.47</ele>
        <time>2022-08-10T14:55:25Z</time>
      </trkpt>
      <trkpt lat="44.93842" lon="1.43608">
        <ele>128.47</ele>
        <time>2022-08-10T14:55:26Z</time>
      </trkpt>
      <trkpt lat="44.93762" lon="1.43673">
        <ele>127.51</ele>
        <time>2022-08-10T14:55:41Z</time>
      </trkpt>
      <trkpt lat="44.93664" lon="1.43763">
        <ele>125.59</ele>
        <time>2022-08-10T14:56:00Z</time>
      </trkpt>
      <trkpt lat="44.93578" lon="1.4379">
        <ele>124.15</ele>
        <time>2022-08-10T14:56:14Z</time>
      </trkpt>
      <trkpt lat="44.93447" lon="1.43812">
        <ele>123.19</ele>
        <time>2022-08-10T14:56:34Z</time>
      </trkpt>
      <trkpt lat="44.93338" lon="1.43842">
        <ele>123.19</ele>
        <time>2022-08-10T14:56:51Z</time>
      </trkpt>
      <trkpt lat="44.93325" lon="1.43842">
        <ele>123.19</ele>
        <time>2022-08-10T14:56:53Z</time>
      </trkpt>
      <trkpt lat="44.93313" lon="1.4384">
        <ele>123.19</ele>
        <time>2022-08-10T14:56:55Z</time>
      </trkpt>
      <trkpt lat="44.933" lon="1.43834">
        <ele>122.71</ele>
        <time>2022-08-10T14:56:57Z</time>
      </trkpt>
      <trkpt lat="44.93295" lon="1.43831">
        <ele>122.71</ele>
        <time>2022-08-10T14:56:58Z</time>
      </trkpt>
      <trkpt lat="44.93289" lon="1.43828">
        <ele>122.71</ele>
        <time>2022-08-10T14:56:59Z</time>
      </trkpt>
      <trkpt lat="44.93266" lon="1.43821">
        <ele>122.71</ele>
        <time>2022-08-10T14:57:03Z</time>
      </trkpt>
      <trkpt lat="44.93259" lon="1.43821">
        <ele>123.19</ele>
        <time>2022-08-10T14:57:04Z</time>
      </trkpt>
      <trkpt lat="44.93254" lon="1.43823">
        <ele>123.19</ele>
        <time>2022-08-10T14:57:05Z</time>
      </trkpt>
      <trkpt lat="44.93249" lon="1.43827">
        <ele>123.19</ele>
        <time>2022-08-10T14:57:06Z</time>
      </trkpt>
      <trkpt lat="44.93245" lon="1.43833">
        <ele>123.19</ele>
        <time>2022-08-10T14:57:07Z</time>
      </trkpt>
      <trkpt lat="44.93242" lon="1.43839">
        <ele>123.19</ele>
        <time>2022-08-10T14:57:08Z</time>
      </trkpt>
      <trkpt lat="44.93239" lon="1.43846">
        <ele>122.71</ele>
        <time>2022-08-10T14:57:09Z</time>
      </trkpt>
      <trkpt lat="44.93236" lon="1.43853">
        <ele>122.71</ele>
        <time>2022-08-10T14:57:10Z</time>
      </trkpt>
      <trkpt lat="44.9323" lon="1.43869">
        <ele>122.71</ele>
        <time>2022-08-10T14:57:12Z</time>
      </trkpt>
      <trkpt lat="44.93227" lon="1.43877">
        <ele>122.22</ele>
        <time>2022-08-10T14:57:13Z</time>
      </trkpt>
      <trkpt lat="44.93182" lon="1.44006">
        <ele>122.22</ele>
        <time>2022-08-10T14:57:29Z</time>
      </trkpt>
      <trkpt lat="44.93152" lon="1.44092">
        <ele>122.71</ele>
        <time>2022-08-10T14:57:39Z</time>
      </trkpt>
      <trkpt lat="44.93113" lon="1.4422">
        <ele>122.22</ele>
        <time>2022-08-10T14:57:53Z</time>
      </trkpt>
      <trkpt lat="44.93071" lon="1.44348">
        <ele>121.74</ele>
        <time>2022-08-10T14:58:08Z</time>
      </trkpt>
      <trkpt lat="44.93026" lon="1.44467">
        <ele>122.22</ele>
        <time>2022-08-10T14:58:23Z</time>
      </trkpt>
      <trkpt lat="44.92995" lon="1.44563">
        <ele>120.78</ele>
        <time>2022-08-10T14:58:35Z</time>
      </trkpt>
      <trkpt lat="44.92959" lon="1.44658">
        <ele>123.19</ele>
        <time>2022-08-10T14:58:47Z</time>
      </trkpt>
      <trkpt lat="44.92924" lon="1.44759">
        <ele>125.11</ele>
        <time>2022-08-10T14:59:00Z</time>
      </trkpt>
      <trkpt lat="44.92922" lon="1.44765">
        <ele>125.59</ele>
        <time>2022-08-10T14:59:01Z</time>
      </trkpt>
      <trkpt lat="44.92919" lon="1.44771">
        <ele>125.59</ele>
        <time>2022-08-10T14:59:02Z</time>
      </trkpt>
      <trkpt lat="44.92915" lon="1.44777">
        <ele>126.07</ele>
        <time>2022-08-10T14:59:03Z</time>
      </trkpt>
      <trkpt lat="44.92911" lon="1.44782">
        <ele>126.07</ele>
        <time>2022-08-10T14:59:04Z</time>
      </trkpt>
      <trkpt lat="44.92907" lon="1.44787">
        <ele>126.55</ele>
        <time>2022-08-10T14:59:05Z</time>
      </trkpt>
      <trkpt lat="44.9289" lon="1.44808">
        <ele>127.03</ele>
        <time>2022-08-10T14:59:09Z</time>
      </trkpt>
      <trkpt lat="44.92877" lon="1.44827">
        <ele>126.55</ele>
        <time>2022-08-10T14:59:12Z</time>
      </trkpt>
      <trkpt lat="44.92873" lon="1.44835">
        <ele>126.07</ele>
        <time>2022-08-10T14:59:13Z</time>
      </trkpt>
      <trkpt lat="44.9287" lon="1.44845">
        <ele>125.11</ele>
        <time>2022-08-10T14:59:14Z</time>
      </trkpt>
      <trkpt lat="44.92869" lon="1.44855">
        <ele>124.63</ele>
        <time>2022-08-10T14:59:15Z</time>
      </trkpt>
      <trkpt lat="44.9287" lon="1.44865">
        <ele>124.15</ele>
        <time>2022-08-10T14:59:16Z</time>
      </trkpt>
      <trkpt lat="44.92872" lon="1.44875">
        <ele>123.67</ele>
        <time>2022-08-10T14:59:17Z</time>
      </trkpt>
      <trkpt lat="44.92876" lon="1.44884">
        <ele>123.19</ele>
        <time>2022-08-10T14:59:18Z</time>
      </trkpt>
      <trkpt lat="44.92879" lon="1.44893">
        <ele>123.19</ele>
        <time>2022-08-10T14:59:19Z</time>
      </trkpt>
      <trkpt lat="44.92883" lon="1.44903">
        <ele>122.71</ele>
        <time>2022-08-10T14:59:20Z</time>
      </trkpt>
      <trkpt lat="44.92884" lon="1.44913">
        <ele>122.22</ele>
        <time>2022-08-10T14:59:21Z</time>
      </trkpt>
      <trkpt lat="44.92884" lon="1.44925">
        <ele>122.22</ele>
        <time>2022-08-10T14:59:22Z</time>
      </trkpt>
      <trkpt lat="44.92881" lon="1.44935">
        <ele>121.74</ele>
        <time>2022-08-10T14:59:23Z</time>
      </trkpt>
      <trkpt lat="44.92877" lon="1.44943">
        <ele>121.74</ele>
        <time>2022-08-10T14:59:24Z</time>
      </trkpt>
      <trkpt lat="44.92871" lon="1.4495">
        <ele>121.74</ele>
        <time>2022-08-10T14:59:25Z</time>
      </trkpt>
      <trkpt lat="44.92865" lon="1.44956">
        <ele>121.74</ele>
        <time>2022-08-10T14:59:26Z</time>
      </trkpt>
      <trkpt lat="44.92859" lon="1.44961">
        <ele>121.74</ele>
        <time>2022-08-10T14:59:27Z</time>
      </trkpt>
      <trkpt lat="44.92852" lon="1.44965">
        <ele>121.26</ele>
        <time>2022-08-10T14:59:28Z</time>
      </trkpt>
      <trkpt lat="44.92845" lon="1.44967">
        <ele>121.26</ele>
        <time>2022-08-10T14:59:29Z</time>
      </trkpt>
      <trkpt lat="44.92838" lon="1.44968">
        <ele>120.78</ele>
        <time>2022-08-10T14:59:30Z</time>
      </trkpt>
      <trkpt lat="44.92831" lon="1.44967">
        <ele>120.78</ele>
        <time>2022-08-10T14:59:31Z</time>
      </trkpt>
      <trkpt lat="44.92825" lon="1.44966">
        <ele>120.78</ele>
        <time>2022-08-10T14:59:32Z</time>
      </trkpt>
      <trkpt lat="44.92819" lon="1.44966">
        <ele>120.78</ele>
        <time>2022-08-10T14:59:33Z</time>
      </trkpt>
      <trkpt lat="44.92812" lon="1.44966">
        <ele>120.78</ele>
        <time>2022-08-10T14:59:34Z</time>
      </trkpt>
      <trkpt lat="44.92806" lon="1.44967">
        <ele>120.78</ele>
        <time>2022-08-10T14:59:35Z</time>
      </trkpt>
      <trkpt lat="44.928" lon="1.4497">
        <ele>120.78</ele>
        <time>2022-08-10T14:59:36Z</time>
      </trkpt>
      <trkpt lat="44.92794" lon="1.44973">
        <ele>120.3</ele>
        <time>2022-08-10T14:59:37Z</time>
      </trkpt>
      <trkpt lat="44.92788" lon="1.44978">
        <ele>120.3</ele>
        <time>2022-08-10T14:59:38Z</time>
      </trkpt>
      <trkpt lat="44.92783" lon="1.44982">
        <ele>120.3</ele>
        <time>2022-08-10T14:59:39Z</time>
      </trkpt>
      <trkpt lat="44.92704" lon="1.45067">
        <ele>121.26</ele>
        <time>2022-08-10T14:59:54Z</time>
      </trkpt>
      <trkpt lat="44.92611" lon="1.45159">
        <ele>123.19</ele>
        <time>2022-08-10T15:00:11Z</time>
      </trkpt>
      <trkpt lat="44.92543" lon="1.45253">
        <ele>122.22</ele>
        <time>2022-08-10T15:00:25Z</time>
      </trkpt>
      <trkpt lat="44.9253" lon="1.45286">
        <ele>121.74</ele>
        <time>2022-08-10T15:00:29Z</time>
      </trkpt>
      <trkpt lat="44.92528" lon="1.45295">
        <ele>121.74</ele>
        <time>2022-08-10T15:00:30Z</time>
      </trkpt>
      <trkpt lat="44.92524" lon="1.45313">
        <ele>121.26</ele>
        <time>2022-08-10T15:00:32Z</time>
      </trkpt>
      <trkpt lat="44.92508" lon="1.4544">
        <ele>121.74</ele>
        <time>2022-08-10T15:00:47Z</time>
      </trkpt>
      <trkpt lat="44.92478" lon="1.45579">
        <ele>121.26</ele>
        <time>2022-08-10T15:01:04Z</time>
      </trkpt>
      <trkpt lat="44.92425" lon="1.4567">
        <ele>119.34</ele>
        <time>2022-08-10T15:01:17Z</time>
      </trkpt>
      <trkpt lat="44.92357" lon="1.45747">
        <ele>118.38</ele>
        <time>2022-08-10T15:01:30Z</time>
      </trkpt>
      <trkpt lat="44.92271" lon="1.45824">
        <ele>117.42</ele>
        <time>2022-08-10T15:01:45Z</time>
      </trkpt>
      <trkpt lat="44.92188" lon="1.45882">
        <ele>116.46</ele>
        <time>2022-08-10T15:01:58Z</time>
      </trkpt>
      <trkpt lat="44.92182" lon="1.45888">
        <ele>116.46</ele>
        <time>2022-08-10T15:01:59Z</time>
      </trkpt>
      <trkpt lat="44.92176" lon="1.45895">
        <ele>116.46</ele>
        <time>2022-08-10T15:02:00Z</time>
      </trkpt>
      <trkpt lat="44.92171" lon="1.45903">
        <ele>116.46</ele>
        <time>2022-08-10T15:02:01Z</time>
      </trkpt>
      <trkpt lat="44.92167" lon="1.45911">
        <ele>116.46</ele>
        <time>2022-08-10T15:02:02Z</time>
      </trkpt>
      <trkpt lat="44.92162" lon="1.45919">
        <ele>116.46</ele>
        <time>2022-08-10T15:02:03Z</time>
      </trkpt>
      <trkpt lat="44.92159" lon="1.45928">
        <ele>116.46</ele>
        <time>2022-08-10T15:02:04Z</time>
      </trkpt>
      <trkpt lat="44.92156" lon="1.45938">
        <ele>116.46</ele>
        <time>2022-08-10T15:02:05Z</time>
      </trkpt>
      <trkpt lat="44.92143" lon="1.45994">
        <ele>115.98</ele>
        <time>2022-08-10T15:02:11Z</time>
      </trkpt>
      <trkpt lat="44.92099" lon="1.46099">
        <ele>116.46</ele>
        <time>2022-08-10T15:02:24Z</time>
      </trkpt>
      <trkpt lat="44.9206" lon="1.46239">
        <ele>114.53</ele>
        <time>2022-08-10T15:02:40Z</time>
      </trkpt>
      <trkpt lat="44.92027" lon="1.46295">
        <ele>115.01</ele>
        <time>2022-08-10T15:02:48Z</time>
      </trkpt>
      <trkpt lat="44.91957" lon="1.46335">
        <ele>114.05</ele>
        <time>2022-08-10T15:03:01Z</time>
      </trkpt>
      <trkpt lat="44.91871" lon="1.46337">
        <ele>113.09</ele>
        <time>2022-08-10T15:03:14Z</time>
      </trkpt>
      <trkpt lat="44.91822" lon="1.46333">
        <ele>114.53</ele>
        <time>2022-08-10T15:03:22Z</time>
      </trkpt>
      <trkpt lat="44.91816" lon="1.46334">
        <ele>114.53</ele>
        <time>2022-08-10T15:03:23Z</time>
      </trkpt>
      <trkpt lat="44.91787" lon="1.46336">
        <ele>115.01</ele>
        <time>2022-08-10T15:03:28Z</time>
      </trkpt>
      <trkpt lat="44.91782" lon="1.46338">
        <ele>115.01</ele>
        <time>2022-08-10T15:03:29Z</time>
      </trkpt>
      <trkpt lat="44.91776" lon="1.4634">
        <ele>115.01</ele>
        <time>2022-08-10T15:03:30Z</time>
      </trkpt>
      <trkpt lat="44.91709" lon="1.46411">
        <ele>116.94</ele>
        <time>2022-08-10T15:03:44Z</time>
      </trkpt>
      <trkpt lat="44.91658" lon="1.4653">
        <ele>119.34</ele>
        <time>2022-08-10T15:04:00Z</time>
      </trkpt>
      <trkpt lat="44.91604" lon="1.46678">
        <ele>120.3</ele>
        <time>2022-08-10T15:04:19Z</time>
      </trkpt>
      <trkpt lat="44.91589" lon="1.46707">
        <ele>120.78</ele>
        <time>2022-08-10T15:04:23Z</time>
      </trkpt>
      <trkpt lat="44.91503" lon="1.46831">
        <ele>118.86</ele>
        <time>2022-08-10T15:04:41Z</time>
      </trkpt>
      <trkpt lat="44.9139" lon="1.46959">
        <ele>114.05</ele>
        <time>2022-08-10T15:04:58Z</time>
      </trkpt>
      <trkpt lat="44.91305" lon="1.47037">
        <ele>112.13</ele>
        <time>2022-08-10T15:05:11Z</time>
      </trkpt>
      <trkpt lat="44.91227" lon="1.47131">
        <ele>112.13</ele>
        <time>2022-08-10T15:05:25Z</time>
      </trkpt>
      <trkpt lat="44.91191" lon="1.47173">
        <ele>112.13</ele>
        <time>2022-08-10T15:05:32Z</time>
      </trkpt>
      <trkpt lat="44.91185" lon="1.47177">
        <ele>112.13</ele>
        <time>2022-08-10T15:05:33Z</time>
      </trkpt>
      <trkpt lat="44.91179" lon="1.47181">
        <ele>112.13</ele>
        <time>2022-08-10T15:05:34Z</time>
      </trkpt>
      <trkpt lat="44.91173" lon="1.47183">
        <ele>112.13</ele>
        <time>2022-08-10T15:05:35Z</time>
      </trkpt>
      <trkpt lat="44.91166" lon="1.47185">
        <ele>112.13</ele>
        <time>2022-08-10T15:05:36Z</time>
      </trkpt>
      <trkpt lat="44.91161" lon="1.47186">
        <ele>111.65</ele>
        <time>2022-08-10T15:05:37Z</time>
      </trkpt>
      <trkpt lat="44.91148" lon="1.47187">
        <ele>111.65</ele>
        <time>2022-08-10T15:05:39Z</time>
      </trkpt>
      <trkpt lat="44.91142" lon="1.47187">
        <ele>112.13</ele>
        <time>2022-08-10T15:05:40Z</time>
      </trkpt>
      <trkpt lat="44.91034" lon="1.47192">
        <ele>114.05</ele>
        <time>2022-08-10T15:05:59Z</time>
      </trkpt>
      <trkpt lat="44.90949" lon="1.47192">
        <ele>112.13</ele>
        <time>2022-08-10T15:06:14Z</time>
      </trkpt>
      <trkpt lat="44.9085" lon="1.47201">
        <ele>112.61</ele>
        <time>2022-08-10T15:06:30Z</time>
      </trkpt>
      <trkpt lat="44.90833" lon="1.47205">
        <ele>112.61</ele>
        <time>2022-08-10T15:06:33Z</time>
      </trkpt>
      <trkpt lat="44.90827" lon="1.47208">
        <ele>113.09</ele>
        <time>2022-08-10T15:06:34Z</time>
      </trkpt>
      <trkpt lat="44.908" lon="1.47225">
        <ele>113.09</ele>
        <time>2022-08-10T15:06:39Z</time>
      </trkpt>
      <trkpt lat="44.90717" lon="1.47306">
        <ele>114.05</ele>
        <time>2022-08-10T15:06:56Z</time>
      </trkpt>
      <trkpt lat="44.90635" lon="1.47367">
        <ele>111.65</ele>
        <time>2022-08-10T15:07:10Z</time>
      </trkpt>
      <trkpt lat="44.90629" lon="1.47374">
        <ele>111.65</ele>
        <time>2022-08-10T15:07:11Z</time>
      </trkpt>
      <trkpt lat="44.90557" lon="1.47473">
        <ele>108.29</ele>
        <time>2022-08-10T15:07:24Z</time>
      </trkpt>
      <trkpt lat="44.90461" lon="1.47579">
        <ele>105.88</ele>
        <time>2022-08-10T15:07:40Z</time>
      </trkpt>
      <trkpt lat="44.90404" lon="1.47602">
        <ele>105.4</ele>
        <time>2022-08-10T15:07:48Z</time>
      </trkpt>
      <trkpt lat="44.90383" lon="1.47605">
        <ele>105.4</ele>
        <time>2022-08-10T15:07:51Z</time>
      </trkpt>
      <trkpt lat="44.90376" lon="1.47604">
        <ele>105.4</ele>
        <time>2022-08-10T15:07:52Z</time>
      </trkpt>
      <trkpt lat="44.90273" lon="1.47582">
        <ele>105.4</ele>
        <time>2022-08-10T15:08:08Z</time>
      </trkpt>
      <trkpt lat="44.90214" lon="1.47557">
        <ele>106.84</ele>
        <time>2022-08-10T15:08:18Z</time>
      </trkpt>
      <trkpt lat="44.90209" lon="1.47557">
        <ele>106.84</ele>
        <time>2022-08-10T15:08:19Z</time>
      </trkpt>
      <trkpt lat="44.90192" lon="1.47555">
        <ele>106.84</ele>
        <time>2022-08-10T15:08:22Z</time>
      </trkpt>
      <trkpt lat="44.90186" lon="1.47552">
        <ele>106.84</ele>
        <time>2022-08-10T15:08:23Z</time>
      </trkpt>
      <trkpt lat="44.90181" lon="1.47548">
        <ele>107.32</ele>
        <time>2022-08-10T15:08:24Z</time>
      </trkpt>
      <trkpt lat="44.90175" lon="1.47543">
        <ele>107.32</ele>
        <time>2022-08-10T15:08:25Z</time>
      </trkpt>
      <trkpt lat="44.9017" lon="1.47538">
        <ele>107.32</ele>
        <time>2022-08-10T15:08:26Z</time>
      </trkpt>
      <trkpt lat="44.90165" lon="1.47533">
        <ele>107.32</ele>
        <time>2022-08-10T15:08:27Z</time>
      </trkpt>
      <trkpt lat="44.90086" lon="1.47458">
        <ele>106.84</ele>
        <time>2022-08-10T15:08:43Z</time>
      </trkpt>
      <trkpt lat="44.9008" lon="1.47455">
        <ele>106.84</ele>
        <time>2022-08-10T15:08:44Z</time>
      </trkpt>
      <trkpt lat="44.90074" lon="1.47455">
        <ele>106.36</ele>
        <time>2022-08-10T15:08:45Z</time>
      </trkpt>
      <trkpt lat="44.90068" lon="1.47455">
        <ele>106.36</ele>
        <time>2022-08-10T15:08:46Z</time>
      </trkpt>
      <trkpt lat="44.90063" lon="1.47457">
        <ele>106.36</ele>
        <time>2022-08-10T15:08:47Z</time>
      </trkpt>
      <trkpt lat="44.90059" lon="1.47459">
        <ele>106.36</ele>
        <time>2022-08-10T15:08:48Z</time>
      </trkpt>
      <trkpt lat="44.90039" lon="1.47465">
        <ele>105.4</ele>
        <time>2022-08-10T15:08:53Z</time>
      </trkpt>
      <trkpt lat="44.90035" lon="1.47464">
        <ele>104.92</ele>
        <time>2022-08-10T15:08:54Z</time>
      </trkpt>
      <trkpt lat="44.9003" lon="1.47463">
        <ele>104.44</ele>
        <time>2022-08-10T15:08:55Z</time>
      </trkpt>
      <trkpt lat="44.90026" lon="1.47465">
        <ele>103.96</ele>
        <time>2022-08-10T15:08:56Z</time>
      </trkpt>
      <trkpt lat="44.90024" lon="1.47469">
        <ele>103.48</ele>
        <time>2022-08-10T15:08:57Z</time>
      </trkpt>
      <trkpt lat="44.90023" lon="1.47474">
        <ele>103</ele>
        <time>2022-08-10T15:08:58Z</time>
      </trkpt>
      <trkpt lat="44.90023" lon="1.47479">
        <ele>102.52</ele>
        <time>2022-08-10T15:08:59Z</time>
      </trkpt>
      <trkpt lat="44.90026" lon="1.47483">
        <ele>102.04</ele>
        <time>2022-08-10T15:09:00Z</time>
      </trkpt>
      <trkpt lat="44.90029" lon="1.47483">
        <ele>101.08</ele>
        <time>2022-08-10T15:09:01Z</time>
      </trkpt>
      <trkpt lat="44.90031" lon="1.4748">
        <ele>100.6</ele>
        <time>2022-08-10T15:09:02Z</time>
      </trkpt>
      <trkpt lat="44.9003" lon="1.47477">
        <ele>100.6</ele>
        <time>2022-08-10T15:09:03Z</time>
      </trkpt>
      <trkpt lat="44.90028" lon="1.47474">
        <ele>100.6</ele>
        <time>2022-08-10T15:09:04Z</time>
      </trkpt>
      <trkpt lat="44.90028" lon="1.47471">
        <ele>100.6</ele>
        <time>2022-08-10T15:09:05Z</time>
      </trkpt>
      <trkpt lat="44.90028" lon="1.47468">
        <ele>100.6</ele>
        <time>2022-08-10T15:09:06Z</time>
      </trkpt>
      <trkpt lat="44.9003" lon="1.47466">
        <ele>100.6</ele>
        <time>2022-08-10T15:09:07Z</time>
      </trkpt>
      <trkpt lat="44.90033" lon="1.47466">
        <ele>100.6</ele>
        <time>2022-08-10T15:09:08Z</time>
      </trkpt>
      <trkpt lat="44.90036" lon="1.47467">
        <ele>101.08</ele>
        <time>2022-08-10T15:09:09Z</time>
      </trkpt>
      <trkpt lat="44.90049" lon="1.47472">
        <ele>101.56</ele>
        <time>2022-08-10T15:09:13Z</time>
      </trkpt>
      <trkpt lat="44.90052" lon="1.47476">
        <ele>101.56</ele>
        <time>2022-08-10T15:09:14Z</time>
      </trkpt>
      <trkpt lat="44.90055" lon="1.47481">
        <ele>101.56</ele>
        <time>2022-08-10T15:09:15Z</time>
      </trkpt>
      <trkpt lat="44.90056" lon="1.47487">
        <ele>101.56</ele>
        <time>2022-08-10T15:09:16Z</time>
      </trkpt>
      <trkpt lat="44.90057" lon="1.47493">
        <ele>101.56</ele>
        <time>2022-08-10T15:09:17Z</time>
      </trkpt>
      <trkpt lat="44.90058" lon="1.475">
        <ele>101.56</ele>
        <time>2022-08-10T15:09:18Z</time>
      </trkpt>
      <trkpt lat="44.90076" lon="1.47609">
        <ele>100.11</ele>
        <time>2022-08-10T15:09:32Z</time>
      </trkpt>
      <trkpt lat="44.90078" lon="1.47616">
        <ele>100.11</ele>
        <time>2022-08-10T15:09:33Z</time>
      </trkpt>
      <trkpt lat="44.90081" lon="1.47624">
        <ele>100.11</ele>
        <time>2022-08-10T15:09:34Z</time>
      </trkpt>
      <trkpt lat="44.90084" lon="1.4763">
        <ele>100.11</ele>
        <time>2022-08-10T15:09:35Z</time>
      </trkpt>
      <trkpt lat="44.90088" lon="1.47637">
        <ele>100.11</ele>
        <time>2022-08-10T15:09:36Z</time>
      </trkpt>
      <trkpt lat="44.90113" lon="1.47687">
        <ele>100.6</ele>
        <time>2022-08-10T15:09:47Z</time>
      </trkpt>
      <trkpt lat="44.90112" lon="1.47689">
        <ele>100.6</ele>
        <time>2022-08-10T15:09:48Z</time>
      </trkpt>
      <trkpt lat="44.90109" lon="1.4769">
        <ele>100.6</ele>
        <time>2022-08-10T15:09:49Z</time>
      </trkpt>
      <trkpt lat="44.90106" lon="1.47691">
        <ele>101.08</ele>
        <time>2022-08-10T15:09:50Z</time>
      </trkpt>
      <trkpt lat="44.90033" lon="1.47702">
        <ele>101.08</ele>
        <time>2022-08-10T15:10:03Z</time>
      </trkpt>
      <trkpt lat="44.89966" lon="1.47716">
        <ele>100.11</ele>
        <time>2022-08-10T15:10:17Z</time>
      </trkpt>
      <trkpt lat="44.89898" lon="1.47728">
        <ele>100.11</ele>
        <time>2022-08-10T15:10:32Z</time>
      </trkpt>
      <trkpt lat="44.89864" lon="1.47733">
        <ele>100.11</ele>
        <time>2022-08-10T15:10:39Z</time>
      </trkpt>
      <trkpt lat="44.8986" lon="1.47733">
        <ele>100.11</ele>
        <time>2022-08-10T15:10:40Z</time>
      </trkpt>
      <trkpt lat="44.89849" lon="1.47732">
        <ele>100.11</ele>
        <time>2022-08-10T15:10:42Z</time>
      </trkpt>
      <trkpt lat="44.89843" lon="1.47733">
        <ele>100.11</ele>
        <time>2022-08-10T15:10:43Z</time>
      </trkpt>
      <trkpt lat="44.89837" lon="1.47737">
        <ele>99.63</ele>
        <time>2022-08-10T15:10:44Z</time>
      </trkpt>
      <trkpt lat="44.89833" lon="1.47739">
        <ele>100.11</ele>
        <time>2022-08-10T15:10:45Z</time>
      </trkpt>
      <trkpt lat="44.89827" lon="1.47741">
        <ele>100.11</ele>
        <time>2022-08-10T15:10:46Z</time>
      </trkpt>
      <trkpt lat="44.89822" lon="1.47742">
        <ele>100.11</ele>
        <time>2022-08-10T15:10:47Z</time>
      </trkpt>
      <trkpt lat="44.89717" lon="1.4776">
        <ele>102.04</ele>
        <time>2022-08-10T15:11:06Z</time>
      </trkpt>
      <trkpt lat="44.89696" lon="1.47766">
        <ele>103.48</ele>
        <time>2022-08-10T15:11:10Z</time>
      </trkpt>
      <trkpt lat="44.89679" lon="1.47775">
        <ele>103.96</ele>
        <time>2022-08-10T15:11:13Z</time>
      </trkpt>
      <trkpt lat="44.89675" lon="1.4778">
        <ele>104.44</ele>
        <time>2022-08-10T15:11:14Z</time>
      </trkpt>
      <trkpt lat="44.8967" lon="1.47785">
        <ele>104.44</ele>
        <time>2022-08-10T15:11:15Z</time>
      </trkpt>
      <trkpt lat="44.89608" lon="1.47859">
        <ele>110.21</ele>
        <time>2022-08-10T15:11:27Z</time>
      </trkpt>
      <trkpt lat="44.89514" lon="1.47909">
        <ele>109.25</ele>
        <time>2022-08-10T15:11:40Z</time>
      </trkpt>
      <trkpt lat="44.8945" lon="1.47935">
        <ele>108.29</ele>
        <time>2022-08-10T15:11:52Z</time>
      </trkpt>
      <trkpt lat="44.89428" lon="1.47943">
        <ele>108.29</ele>
        <time>2022-08-10T15:11:56Z</time>
      </trkpt>
      <trkpt lat="44.89423" lon="1.47941">
        <ele>107.81</ele>
        <time>2022-08-10T15:11:57Z</time>
      </trkpt>
      <trkpt lat="44.89417" lon="1.47936">
        <ele>107.32</ele>
        <time>2022-08-10T15:11:58Z</time>
      </trkpt>
      <trkpt lat="44.89413" lon="1.47927">
        <ele>106.84</ele>
        <time>2022-08-10T15:11:59Z</time>
      </trkpt>
      <trkpt lat="44.8941" lon="1.4792">
        <ele>106.84</ele>
        <time>2022-08-10T15:12:00Z</time>
      </trkpt>
      <trkpt lat="44.89407" lon="1.47911">
        <ele>106.36</ele>
        <time>2022-08-10T15:12:01Z</time>
      </trkpt>
      <trkpt lat="44.89404" lon="1.47901">
        <ele>105.88</ele>
        <time>2022-08-10T15:12:02Z</time>
      </trkpt>
      <trkpt lat="44.8939" lon="1.4787">
        <ele>104.44</ele>
        <time>2022-08-10T15:12:05Z</time>
      </trkpt>
      <trkpt lat="44.89384" lon="1.47861">
        <ele>103.96</ele>
        <time>2022-08-10T15:12:06Z</time>
      </trkpt>
      <trkpt lat="44.89377" lon="1.47853">
        <ele>103.48</ele>
        <time>2022-08-10T15:12:07Z</time>
      </trkpt>
      <trkpt lat="44.89296" lon="1.47739">
        <ele>97.23</ele>
        <time>2022-08-10T15:12:19Z</time>
      </trkpt>
      <trkpt lat="44.89254" lon="1.4766">
        <ele>94.83</ele>
        <time>2022-08-10T15:12:27Z</time>
      </trkpt>
      <trkpt lat="44.89252" lon="1.47649">
        <ele>94.83</ele>
        <time>2022-08-10T15:12:28Z</time>
      </trkpt>
      <trkpt lat="44.89251" lon="1.47638">
        <ele>94.35</ele>
        <time>2022-08-10T15:12:29Z</time>
      </trkpt>
      <trkpt lat="44.89251" lon="1.47628">
        <ele>94.35</ele>
        <time>2022-08-10T15:12:30Z</time>
      </trkpt>
      <trkpt lat="44.89252" lon="1.47617">
        <ele>94.35</ele>
        <time>2022-08-10T15:12:31Z</time>
      </trkpt>
      <trkpt lat="44.89276" lon="1.47498">
        <ele>93.87</ele>
        <time>2022-08-10T15:12:43Z</time>
      </trkpt>
      <trkpt lat="44.89301" lon="1.47378">
        <ele>94.83</ele>
        <time>2022-08-10T15:12:56Z</time>
      </trkpt>
      <trkpt lat="44.89326" lon="1.47258">
        <ele>93.87</ele>
        <time>2022-08-10T15:13:09Z</time>
      </trkpt>
      <trkpt lat="44.89365" lon="1.47081">
        <ele>91.94</ele>
        <time>2022-08-10T15:13:28Z</time>
      </trkpt>
      <trkpt lat="44.89426" lon="1.46945">
        <ele>92.42</ele>
        <time>2022-08-10T15:13:45Z</time>
      </trkpt>
      <trkpt lat="44.89484" lon="1.46823">
        <ele>91.46</ele>
        <time>2022-08-10T15:14:01Z</time>
      </trkpt>
      <trkpt lat="44.8955" lon="1.46688">
        <ele>90.98</ele>
        <time>2022-08-10T15:14:19Z</time>
      </trkpt>
      <trkpt lat="44.89628" lon="1.46558">
        <ele>90.98</ele>
        <time>2022-08-10T15:14:38Z</time>
      </trkpt>
      <trkpt lat="44.89717" lon="1.46413">
        <ele>91.46</ele>
        <time>2022-08-10T15:14:59Z</time>
      </trkpt>
      <trkpt lat="44.89782" lon="1.46312">
        <ele>91.94</ele>
        <time>2022-08-10T15:15:14Z</time>
      </trkpt>
      <trkpt lat="44.89785" lon="1.46309">
        <ele>92.42</ele>
        <time>2022-08-10T15:15:15Z</time>
      </trkpt>
      <trkpt lat="44.89787" lon="1.46307">
        <ele>92.42</ele>
        <time>2022-08-10T15:15:16Z</time>
      </trkpt>
      <trkpt lat="44.8979" lon="1.46306">
        <ele>91.94</ele>
        <time>2022-08-10T15:15:17Z</time>
      </trkpt>
      <trkpt lat="44.89793" lon="1.46306">
        <ele>91.94</ele>
        <time>2022-08-10T15:15:18Z</time>
      </trkpt>
      <trkpt lat="44.89796" lon="1.46305">
        <ele>91.94</ele>
        <time>2022-08-10T15:15:19Z</time>
      </trkpt>
      <trkpt lat="44.89801" lon="1.46304">
        <ele>91.94</ele>
        <time>2022-08-10T15:15:20Z</time>
      </trkpt>
      <trkpt lat="44.89805" lon="1.46301">
        <ele>91.94</ele>
        <time>2022-08-10T15:15:21Z</time>
      </trkpt>
      <trkpt lat="44.89809" lon="1.46296">
        <ele>91.94</ele>
        <time>2022-08-10T15:15:22Z</time>
      </trkpt>
      <trkpt lat="44.89812" lon="1.46289">
        <ele>91.94</ele>
        <time>2022-08-10T15:15:23Z</time>
      </trkpt>
      <trkpt lat="44.89813" lon="1.46281">
        <ele>91.94</ele>
        <time>2022-08-10T15:15:24Z</time>
      </trkpt>
      <trkpt lat="44.89812" lon="1.46274">
        <ele>91.94</ele>
        <time>2022-08-10T15:15:25Z</time>
      </trkpt>
      <trkpt lat="44.8981" lon="1.46266">
        <ele>91.46</ele>
        <time>2022-08-10T15:15:26Z</time>
      </trkpt>
      <trkpt lat="44.89809" lon="1.46258">
        <ele>91.46</ele>
        <time>2022-08-10T15:15:27Z</time>
      </trkpt>
      <trkpt lat="44.89809" lon="1.4625">
        <ele>91.46</ele>
        <time>2022-08-10T15:15:28Z</time>
      </trkpt>
      <trkpt lat="44.89811" lon="1.46242">
        <ele>90.98</ele>
        <time>2022-08-10T15:15:29Z</time>
      </trkpt>
      <trkpt lat="44.89813" lon="1.46234">
        <ele>90.98</ele>
        <time>2022-08-10T15:15:30Z</time>
      </trkpt>
      <trkpt lat="44.89815" lon="1.46226">
        <ele>90.98</ele>
        <time>2022-08-10T15:15:31Z</time>
      </trkpt>
      <trkpt lat="44.89823" lon="1.46201">
        <ele>90.98</ele>
        <time>2022-08-10T15:15:34Z</time>
      </trkpt>
      <trkpt lat="44.8983" lon="1.46152">
        <ele>90.5</ele>
        <time>2022-08-10T15:15:44Z</time>
      </trkpt>
      <trkpt lat="44.89826" lon="1.46063">
        <ele>90.98</ele>
        <time>2022-08-10T15:15:57Z</time>
      </trkpt>
      <trkpt lat="44.89792" lon="1.4592">
        <ele>91.94</ele>
        <time>2022-08-10T15:16:15Z</time>
      </trkpt>
      <trkpt lat="44.8976" lon="1.458">
        <ele>90.98</ele>
        <time>2022-08-10T15:16:30Z</time>
      </trkpt>
      <trkpt lat="44.89709" lon="1.45623">
        <ele>91.46</ele>
        <time>2022-08-10T15:16:51Z</time>
      </trkpt>
      <trkpt lat="44.8967" lon="1.45492">
        <ele>93.39</ele>
        <time>2022-08-10T15:17:06Z</time>
      </trkpt>
      <trkpt lat="44.89627" lon="1.45334">
        <ele>94.35</ele>
        <time>2022-08-10T15:17:24Z</time>
      </trkpt>
      <trkpt lat="44.89574" lon="1.45146">
        <ele>93.87</ele>
        <time>2022-08-10T15:17:45Z</time>
      </trkpt>
      <trkpt lat="44.89523" lon="1.44997">
        <ele>93.87</ele>
        <time>2022-08-10T15:18:02Z</time>
      </trkpt>
      <trkpt lat="44.89468" lon="1.44851">
        <ele>92.42</ele>
        <time>2022-08-10T15:18:19Z</time>
      </trkpt>
      <trkpt lat="44.89405" lon="1.44679">
        <ele>92.42</ele>
        <time>2022-08-10T15:18:40Z</time>
      </trkpt>
      <trkpt lat="44.89366" lon="1.44574">
        <ele>91.46</ele>
        <time>2022-08-10T15:18:54Z</time>
      </trkpt>
      <trkpt lat="44.89314" lon="1.44433">
        <ele>91.46</ele>
        <time>2022-08-10T15:19:12Z</time>
      </trkpt>
      <trkpt lat="44.89257" lon="1.44281">
        <ele>90.5</ele>
        <time>2022-08-10T15:19:30Z</time>
      </trkpt>
      <trkpt lat="44.89191" lon="1.44105">
        <ele>91.46</ele>
        <time>2022-08-10T15:19:50Z</time>
      </trkpt>
      <trkpt lat="44.89185" lon="1.44089">
        <ele>91.46</ele>
        <time>2022-08-10T15:19:52Z</time>
      </trkpt>
      <trkpt lat="44.89182" lon="1.44081">
        <ele>91.46</ele>
        <time>2022-08-10T15:19:53Z</time>
      </trkpt>
      <trkpt lat="44.89137" lon="1.43978">
        <ele>93.39</ele>
        <time>2022-08-10T15:20:07Z</time>
      </trkpt>
      <trkpt lat="44.89126" lon="1.43963">
        <ele>93.87</ele>
        <time>2022-08-10T15:20:10Z</time>
      </trkpt>
      <trkpt lat="44.89122" lon="1.43959">
        <ele>94.35</ele>
        <time>2022-08-10T15:20:11Z</time>
      </trkpt>
      <trkpt lat="44.89118" lon="1.43956">
        <ele>94.35</ele>
        <time>2022-08-10T15:20:12Z</time>
      </trkpt>
      <trkpt lat="44.89081" lon="1.43932">
        <ele>95.31</ele>
        <time>2022-08-10T15:20:21Z</time>
      </trkpt>
      <trkpt lat="44.89054" lon="1.4392">
        <ele>94.83</ele>
        <time>2022-08-10T15:20:28Z</time>
      </trkpt>
      <trkpt lat="44.88988" lon="1.439">
        <ele>95.79</ele>
        <time>2022-08-10T15:20:44Z</time>
      </trkpt>
      <trkpt lat="44.8891" lon="1.43891">
        <ele>96.27</ele>
        <time>2022-08-10T15:21:02Z</time>
      </trkpt>
      <trkpt lat="44.88877" lon="1.43888">
        <ele>97.23</ele>
        <time>2022-08-10T15:21:09Z</time>
      </trkpt>
      <trkpt lat="44.88799" lon="1.4388">
        <ele>102.52</ele>
        <time>2022-08-10T15:21:26Z</time>
      </trkpt>
      <trkpt lat="44.88729" lon="1.4388">
        <ele>104.92</ele>
        <time>2022-08-10T15:21:41Z</time>
      </trkpt>
      <trkpt lat="44.88647" lon="1.43912">
        <ele>106.84</ele>
        <time>2022-08-10T15:21:59Z</time>
      </trkpt>
      <trkpt lat="44.88559" lon="1.43958">
        <ele>106.84</ele>
        <time>2022-08-10T15:22:19Z</time>
      </trkpt>
      <trkpt lat="44.88519" lon="1.43977">
        <ele>108.29</ele>
        <time>2022-08-10T15:22:28Z</time>
      </trkpt>
      <trkpt lat="44.88452" lon="1.43959">
        <ele>111.65</ele>
        <time>2022-08-10T15:22:42Z</time>
      </trkpt>
      <trkpt lat="44.88396" lon="1.43884">
        <ele>113.57</ele>
        <time>2022-08-10T15:22:57Z</time>
      </trkpt>
      <trkpt lat="44.88338" lon="1.43792">
        <ele>114.53</ele>
        <time>2022-08-10T15:23:13Z</time>
      </trkpt>
      <trkpt lat="44.88292" lon="1.43674">
        <ele>115.98</ele>
        <time>2022-08-10T15:23:30Z</time>
      </trkpt>
      <trkpt lat="44.88288" lon="1.4366">
        <ele>115.98</ele>
        <time>2022-08-10T15:23:32Z</time>
      </trkpt>
      <trkpt lat="44.88286" lon="1.43652">
        <ele>116.46</ele>
        <time>2022-08-10T15:23:33Z</time>
      </trkpt>
      <trkpt lat="44.88285" lon="1.43645">
        <ele>116.46</ele>
        <time>2022-08-10T15:23:34Z</time>
      </trkpt>
      <trkpt lat="44.88283" lon="1.43637">
        <ele>116.46</ele>
        <time>2022-08-10T15:23:35Z</time>
      </trkpt>
      <trkpt lat="44.88281" lon="1.43629">
        <ele>116.46</ele>
        <time>2022-08-10T15:23:36Z</time>
      </trkpt>
      <trkpt lat="44.88255" lon="1.43502">
        <ele>117.42</ele>
        <time>2022-08-10T15:23:52Z</time>
      </trkpt>
      <trkpt lat="44.88247" lon="1.43355">
        <ele>118.86</ele>
        <time>2022-08-10T15:24:10Z</time>
      </trkpt>
      <trkpt lat="44.88244" lon="1.43254">
        <ele>119.82</ele>
        <time>2022-08-10T15:24:22Z</time>
      </trkpt>
      <trkpt lat="44.88244" lon="1.43246">
        <ele>119.82</ele>
        <time>2022-08-10T15:24:23Z</time>
      </trkpt>
      <trkpt lat="44.88238" lon="1.431">
        <ele>119.34</ele>
        <time>2022-08-10T15:24:40Z</time>
      </trkpt>
      <trkpt lat="44.88235" lon="1.4296">
        <ele>118.86</ele>
        <time>2022-08-10T15:24:57Z</time>
      </trkpt>
      <trkpt lat="44.8823" lon="1.42823">
        <ele>117.9</ele>
        <time>2022-08-10T15:25:14Z</time>
      </trkpt>
      <trkpt lat="44.88231" lon="1.42768">
        <ele>118.38</ele>
        <time>2022-08-10T15:25:21Z</time>
      </trkpt>
      <trkpt lat="44.8823" lon="1.42738">
        <ele>118.86</ele>
        <time>2022-08-10T15:25:25Z</time>
      </trkpt>
      <trkpt lat="44.88227" lon="1.42632">
        <ele>119.34</ele>
        <time>2022-08-10T15:25:39Z</time>
      </trkpt>
      <trkpt lat="44.88223" lon="1.42574">
        <ele>119.34</ele>
        <time>2022-08-10T15:25:46Z</time>
      </trkpt>
      <trkpt lat="44.88219" lon="1.42433">
        <ele>116.46</ele>
        <time>2022-08-10T15:26:03Z</time>
      </trkpt>
      <trkpt lat="44.88214" lon="1.42289">
        <ele>114.53</ele>
        <time>2022-08-10T15:26:21Z</time>
      </trkpt>
      <trkpt lat="44.88211" lon="1.42136">
        <ele>113.57</ele>
        <time>2022-08-10T15:26:39Z</time>
      </trkpt>
      <trkpt lat="44.88224" lon="1.42007">
        <ele>112.61</ele>
        <time>2022-08-10T15:26:54Z</time>
      </trkpt>
      <trkpt lat="44.88253" lon="1.41865">
        <ele>107.32</ele>
        <time>2022-08-10T15:27:09Z</time>
      </trkpt>
      <trkpt lat="44.88262" lon="1.41697">
        <ele>97.23</ele>
        <time>2022-08-10T15:27:20Z</time>
      </trkpt>
      <trkpt lat="44.88306" lon="1.41479">
        <ele>89.06</ele>
        <time>2022-08-10T15:27:33Z</time>
      </trkpt>
      <trkpt lat="44.88352" lon="1.41352">
        <ele>89.54</ele>
        <time>2022-08-10T15:27:44Z</time>
      </trkpt>
      <trkpt lat="44.88413" lon="1.41213">
        <ele>90.98</ele>
        <time>2022-08-10T15:28:00Z</time>
      </trkpt>
      <trkpt lat="44.88468" lon="1.41085">
        <ele>91.94</ele>
        <time>2022-08-10T15:28:16Z</time>
      </trkpt>
      <trkpt lat="44.8854" lon="1.40928">
        <ele>91.46</ele>
        <time>2022-08-10T15:28:37Z</time>
      </trkpt>
      <trkpt lat="44.88612" lon="1.40774">
        <ele>90.5</ele>
        <time>2022-08-10T15:28:59Z</time>
      </trkpt>
      <trkpt lat="44.88661" lon="1.40684">
        <ele>90.02</ele>
        <time>2022-08-10T15:29:13Z</time>
      </trkpt>
      <trkpt lat="44.8873" lon="1.40577">
        <ele>90.02</ele>
        <time>2022-08-10T15:29:29Z</time>
      </trkpt>
      <trkpt lat="44.88812" lon="1.40458">
        <ele>89.54</ele>
        <time>2022-08-10T15:29:48Z</time>
      </trkpt>
      <trkpt lat="44.8886" lon="1.40354">
        <ele>89.06</ele>
        <time>2022-08-10T15:30:02Z</time>
      </trkpt>
      <trkpt lat="44.88887" lon="1.40233">
        <ele>89.54</ele>
        <time>2022-08-10T15:30:16Z</time>
      </trkpt>
      <trkpt lat="44.8889" lon="1.40091">
        <ele>89.54</ele>
        <time>2022-08-10T15:30:32Z</time>
      </trkpt>
      <trkpt lat="44.88877" lon="1.39935">
        <ele>90.98</ele>
        <time>2022-08-10T15:30:49Z</time>
      </trkpt>
      <trkpt lat="44.8887" lon="1.39848">
        <ele>91.46</ele>
        <time>2022-08-10T15:30:59Z</time>
      </trkpt>
      <trkpt lat="44.8887" lon="1.39841">
        <ele>91.46</ele>
        <time>2022-08-10T15:31:00Z</time>
      </trkpt>
      <trkpt lat="44.88859" lon="1.39714">
        <ele>91.94</ele>
        <time>2022-08-10T15:31:15Z</time>
      </trkpt>
      <trkpt lat="44.8885" lon="1.39565">
        <ele>89.54</ele>
        <time>2022-08-10T15:31:32Z</time>
      </trkpt>
      <trkpt lat="44.88856" lon="1.39435">
        <ele>89.06</ele>
        <time>2022-08-10T15:31:47Z</time>
      </trkpt>
      <trkpt lat="44.88845" lon="1.39249">
        <ele>89.54</ele>
        <time>2022-08-10T15:32:09Z</time>
      </trkpt>
      <trkpt lat="44.88821" lon="1.39096">
        <ele>90.98</ele>
        <time>2022-08-10T15:32:28Z</time>
      </trkpt>
      <trkpt lat="44.88805" lon="1.38926">
        <ele>88.58</ele>
        <time>2022-08-10T15:32:50Z</time>
      </trkpt>
      <trkpt lat="44.88791" lon="1.38796">
        <ele>86.66</ele>
        <time>2022-08-10T15:33:07Z</time>
      </trkpt>
      <trkpt lat="44.88789" lon="1.38789">
        <ele>86.66</ele>
        <time>2022-08-10T15:33:08Z</time>
      </trkpt>
      <trkpt lat="44.88786" lon="1.38784">
        <ele>86.66</ele>
        <time>2022-08-10T15:33:09Z</time>
      </trkpt>
      <trkpt lat="44.88782" lon="1.38779">
        <ele>86.66</ele>
        <time>2022-08-10T15:33:10Z</time>
      </trkpt>
      <trkpt lat="44.88779" lon="1.38776">
        <ele>86.66</ele>
        <time>2022-08-10T15:33:11Z</time>
      </trkpt>
      <trkpt lat="44.88776" lon="1.38773">
        <ele>86.66</ele>
        <time>2022-08-10T15:33:12Z</time>
      </trkpt>
      <trkpt lat="44.88774" lon="1.38768">
        <ele>86.66</ele>
        <time>2022-08-10T15:33:13Z</time>
      </trkpt>
      <trkpt lat="44.88774" lon="1.38765">
        <ele>86.66</ele>
        <time>2022-08-10T15:33:14Z</time>
      </trkpt>
      <trkpt lat="44.88774" lon="1.38761">
        <ele>87.14</ele>
        <time>2022-08-10T15:33:15Z</time>
      </trkpt>
      <trkpt lat="44.88764" lon="1.38679">
        <ele>88.1</ele>
        <time>2022-08-10T15:33:29Z</time>
      </trkpt>
      <trkpt lat="44.88757" lon="1.38647">
        <ele>88.58</ele>
        <time>2022-08-10T15:33:34Z</time>
      </trkpt>
      <trkpt lat="44.88722" lon="1.38532">
        <ele>89.54</ele>
        <time>2022-08-10T15:33:52Z</time>
      </trkpt>
      <trkpt lat="44.88715" lon="1.38517">
        <ele>90.02</ele>
        <time>2022-08-10T15:33:55Z</time>
      </trkpt>
      <trkpt lat="44.88686" lon="1.38454">
        <ele>90.02</ele>
        <time>2022-08-10T15:34:06Z</time>
      </trkpt>
      <trkpt lat="44.8865" lon="1.38395">
        <ele>90.02</ele>
        <time>2022-08-10T15:34:17Z</time>
      </trkpt>
      <trkpt lat="44.8859" lon="1.38323">
        <ele>89.54</ele>
        <time>2022-08-10T15:34:32Z</time>
      </trkpt>
      <trkpt lat="44.88527" lon="1.38267">
        <ele>90.5</ele>
        <time>2022-08-10T15:34:46Z</time>
      </trkpt>
      <trkpt lat="44.88459" lon="1.38207">
        <ele>91.46</ele>
        <time>2022-08-10T15:35:01Z</time>
      </trkpt>
      <trkpt lat="44.88446" lon="1.38195">
        <ele>90.98</ele>
        <time>2022-08-10T15:35:04Z</time>
      </trkpt>
      <trkpt lat="44.88374" lon="1.38132">
        <ele>91.94</ele>
        <time>2022-08-10T15:35:19Z</time>
      </trkpt>
      <trkpt lat="44.88307" lon="1.38074">
        <ele>91.46</ele>
        <time>2022-08-10T15:35:33Z</time>
      </trkpt>
      <trkpt lat="44.88298" lon="1.38065">
        <ele>91.46</ele>
        <time>2022-08-10T15:35:35Z</time>
      </trkpt>
      <trkpt lat="44.88293" lon="1.38061">
        <ele>91.94</ele>
        <time>2022-08-10T15:35:36Z</time>
      </trkpt>
      <trkpt lat="44.88237" lon="1.38014">
        <ele>92.9</ele>
        <time>2022-08-10T15:35:49Z</time>
      </trkpt>
      <trkpt lat="44.88192" lon="1.37974">
        <ele>92.42</ele>
        <time>2022-08-10T15:35:59Z</time>
      </trkpt>
      <trkpt lat="44.88187" lon="1.3797">
        <ele>92.9</ele>
        <time>2022-08-10T15:36:00Z</time>
      </trkpt>
      <trkpt lat="44.88168" lon="1.37952">
        <ele>95.31</ele>
        <time>2022-08-10T15:36:04Z</time>
      </trkpt>
      <trkpt lat="44.88141" lon="1.37924">
        <ele>96.75</ele>
        <time>2022-08-10T15:36:10Z</time>
      </trkpt>
      <trkpt lat="44.88069" lon="1.37836">
        <ele>96.75</ele>
        <time>2022-08-10T15:36:26Z</time>
      </trkpt>
      <trkpt lat="44.88031" lon="1.37784">
        <ele>96.75</ele>
        <time>2022-08-10T15:36:36Z</time>
      </trkpt>
      <trkpt lat="44.88027" lon="1.37779">
        <ele>96.75</ele>
        <time>2022-08-10T15:36:37Z</time>
      </trkpt>
      <trkpt lat="44.87971" lon="1.37701">
        <ele>95.31</ele>
        <time>2022-08-10T15:36:51Z</time>
      </trkpt>
      <trkpt lat="44.8792" lon="1.37624">
        <ele>92.9</ele>
        <time>2022-08-10T15:37:05Z</time>
      </trkpt>
      <trkpt lat="44.87872" lon="1.37559">
        <ele>92.9</ele>
        <time>2022-08-10T15:37:18Z</time>
      </trkpt>
      <trkpt lat="44.87816" lon="1.37482">
        <ele>93.87</ele>
        <time>2022-08-10T15:37:32Z</time>
      </trkpt>
      <trkpt lat="44.87772" lon="1.37422">
        <ele>94.35</ele>
        <time>2022-08-10T15:37:43Z</time>
      </trkpt>
      <trkpt lat="44.87711" lon="1.37337">
        <ele>97.23</ele>
        <time>2022-08-10T15:37:58Z</time>
      </trkpt>
      <trkpt lat="44.87679" lon="1.37292">
        <ele>97.71</ele>
        <time>2022-08-10T15:38:06Z</time>
      </trkpt>
      <trkpt lat="44.87643" lon="1.3724">
        <ele>98.67</ele>
        <time>2022-08-10T15:38:15Z</time>
      </trkpt>
      <trkpt lat="44.8764" lon="1.37235">
        <ele>98.67</ele>
        <time>2022-08-10T15:38:16Z</time>
      </trkpt>
      <trkpt lat="44.87587" lon="1.37161">
        <ele>99.63</ele>
        <time>2022-08-10T15:38:29Z</time>
      </trkpt>
      <trkpt lat="44.87543" lon="1.37098">
        <ele>100.6</ele>
        <time>2022-08-10T15:38:40Z</time>
      </trkpt>
      <trkpt lat="44.87476" lon="1.37003">
        <ele>99.15</ele>
        <time>2022-08-10T15:38:56Z</time>
      </trkpt>
      <trkpt lat="44.87418" lon="1.36919">
        <ele>96.75</ele>
        <time>2022-08-10T15:39:10Z</time>
      </trkpt>
      <trkpt lat="44.87409" lon="1.36907">
        <ele>96.75</ele>
        <time>2022-08-10T15:39:12Z</time>
      </trkpt>
      <trkpt lat="44.8736" lon="1.36835">
        <ele>94.35</ele>
        <time>2022-08-10T15:39:24Z</time>
      </trkpt>
      <trkpt lat="44.87356" lon="1.36829">
        <ele>93.87</ele>
        <time>2022-08-10T15:39:25Z</time>
      </trkpt>
      <trkpt lat="44.87296" lon="1.36742">
        <ele>93.39</ele>
        <time>2022-08-10T15:39:39Z</time>
      </trkpt>
      <trkpt lat="44.87234" lon="1.36654">
        <ele>93.39</ele>
        <time>2022-08-10T15:39:53Z</time>
      </trkpt>
      <trkpt lat="44.87177" lon="1.36572">
        <ele>94.83</ele>
        <time>2022-08-10T15:40:06Z</time>
      </trkpt>
      <trkpt lat="44.871" lon="1.36461">
        <ele>90.98</ele>
        <time>2022-08-10T15:40:23Z</time>
      </trkpt>
      <trkpt lat="44.87027" lon="1.36352">
        <ele>90.02</ele>
        <time>2022-08-10T15:40:40Z</time>
      </trkpt>
      <trkpt lat="44.87022" lon="1.36346">
        <ele>90.5</ele>
        <time>2022-08-10T15:40:41Z</time>
      </trkpt>
      <trkpt lat="44.86948" lon="1.36249">
        <ele>90.98</ele>
        <time>2022-08-10T15:40:57Z</time>
      </trkpt>
      <trkpt lat="44.86871" lon="1.36137">
        <ele>90.02</ele>
        <time>2022-08-10T15:41:15Z</time>
      </trkpt>
      <trkpt lat="44.86854" lon="1.36111">
        <ele>89.54</ele>
        <time>2022-08-10T15:41:19Z</time>
      </trkpt>
      <trkpt lat="44.86819" lon="1.3604">
        <ele>88.58</ele>
        <time>2022-08-10T15:41:29Z</time>
      </trkpt>
      <trkpt lat="44.86796" lon="1.35979">
        <ele>89.54</ele>
        <time>2022-08-10T15:41:38Z</time>
      </trkpt>
      <trkpt lat="44.86782" lon="1.35934">
        <ele>89.54</ele>
        <time>2022-08-10T15:41:44Z</time>
      </trkpt>
      <trkpt lat="44.8676" lon="1.35868">
        <ele>89.54</ele>
        <time>2022-08-10T15:41:53Z</time>
      </trkpt>
      <trkpt lat="44.86755" lon="1.35852">
        <ele>89.54</ele>
        <time>2022-08-10T15:41:55Z</time>
      </trkpt>
      <trkpt lat="44.86722" lon="1.35761">
        <ele>88.58</ele>
        <time>2022-08-10T15:42:09Z</time>
      </trkpt>
      <trkpt lat="44.86719" lon="1.35758">
        <ele>88.58</ele>
        <time>2022-08-10T15:42:10Z</time>
      </trkpt>
      <trkpt lat="44.86714" lon="1.35755">
        <ele>88.1</ele>
        <time>2022-08-10T15:42:11Z</time>
      </trkpt>
      <trkpt lat="44.86705" lon="1.3575">
        <ele>87.62</ele>
        <time>2022-08-10T15:42:13Z</time>
      </trkpt>
      <trkpt lat="44.86701" lon="1.35745">
        <ele>87.62</ele>
        <time>2022-08-10T15:42:14Z</time>
      </trkpt>
      <trkpt lat="44.86699" lon="1.35739">
        <ele>87.62</ele>
        <time>2022-08-10T15:42:15Z</time>
      </trkpt>
      <trkpt lat="44.86695" lon="1.35728">
        <ele>88.1</ele>
        <time>2022-08-10T15:42:17Z</time>
      </trkpt>
      <trkpt lat="44.8669" lon="1.35719">
        <ele>88.1</ele>
        <time>2022-08-10T15:42:19Z</time>
      </trkpt>
      <trkpt lat="44.86669" lon="1.35679">
        <ele>90.02</ele>
        <time>2022-08-10T15:42:30Z</time>
      </trkpt>
      <trkpt lat="44.86668" lon="1.35675">
        <ele>90.02</ele>
        <time>2022-08-10T15:42:31Z</time>
      </trkpt>
      <trkpt lat="44.86669" lon="1.35672">
        <ele>90.5</ele>
        <time>2022-08-10T15:42:32Z</time>
      </trkpt>
      <trkpt lat="44.86671" lon="1.35664">
        <ele>90.5</ele>
        <time>2022-08-10T15:42:34Z</time>
      </trkpt>
      <trkpt lat="44.86669" lon="1.35659">
        <ele>90.5</ele>
        <time>2022-08-10T15:42:35Z</time>
      </trkpt>
      <trkpt lat="44.86667" lon="1.35655">
        <ele>90.02</ele>
        <time>2022-08-10T15:42:36Z</time>
      </trkpt>
      <trkpt lat="44.86664" lon="1.35653">
        <ele>90.02</ele>
        <time>2022-08-10T15:42:37Z</time>
      </trkpt>
      <trkpt lat="44.86661" lon="1.3565">
        <ele>90.02</ele>
        <time>2022-08-10T15:42:38Z</time>
      </trkpt>
      <trkpt lat="44.86658" lon="1.35646">
        <ele>90.02</ele>
        <time>2022-08-10T15:42:39Z</time>
      </trkpt>
      <trkpt lat="44.86655" lon="1.35642">
        <ele>90.02</ele>
        <time>2022-08-10T15:42:40Z</time>
      </trkpt>
      <trkpt lat="44.86612" lon="1.35598">
        <ele>89.54</ele>
        <time>2022-08-10T15:42:54Z</time>
      </trkpt>
      <trkpt lat="44.86571" lon="1.35559">
        <ele>89.54</ele>
        <time>2022-08-10T15:43:07Z</time>
      </trkpt>
      <trkpt lat="44.86567" lon="1.35556">
        <ele>89.54</ele>
        <time>2022-08-10T15:43:08Z</time>
      </trkpt>
      <trkpt lat="44.86542" lon="1.35531">
        <ele>90.02</ele>
        <time>2022-08-10T15:43:15Z</time>
      </trkpt>
      <trkpt lat="44.86497" lon="1.35489">
        <ele>88.1</ele>
        <time>2022-08-10T15:43:24Z</time>
      </trkpt>
      <trkpt lat="44.86437" lon="1.35412">
        <ele>87.62</ele>
        <time>2022-08-10T15:43:38Z</time>
      </trkpt>
      <trkpt lat="44.86389" lon="1.3533">
        <ele>88.1</ele>
        <time>2022-08-10T15:43:52Z</time>
      </trkpt>
      <trkpt lat="44.86338" lon="1.35222">
        <ele>83.77</ele>
        <time>2022-08-10T15:44:09Z</time>
      </trkpt>
      <trkpt lat="44.86288" lon="1.35122">
        <ele>84.73</ele>
        <time>2022-08-10T15:44:25Z</time>
      </trkpt>
      <trkpt lat="44.86234" lon="1.35034">
        <ele>82.81</ele>
        <time>2022-08-10T15:44:40Z</time>
      </trkpt>
      <trkpt lat="44.86206" lon="1.34999">
        <ele>81.85</ele>
        <time>2022-08-10T15:44:47Z</time>
      </trkpt>
      <trkpt lat="44.8583" lon="1.34639">
        <ele>91.94</ele>
        <time>2022-08-10T15:46:08Z</time>
      </trkpt>
      <trkpt lat="44.85772" lon="1.34543">
        <ele>89.06</ele>
        <time>2022-08-10T15:46:25Z</time>
      </trkpt>
      <trkpt lat="44.85732" lon="1.34439">
        <ele>90.02</ele>
        <time>2022-08-10T15:46:40Z</time>
      </trkpt>
      <trkpt lat="44.85712" lon="1.34367">
        <ele>89.54</ele>
        <time>2022-08-10T15:46:51Z</time>
      </trkpt>
      <trkpt lat="44.85706" lon="1.34345">
        <ele>90.02</ele>
        <time>2022-08-10T15:46:54Z</time>
      </trkpt>
      <trkpt lat="44.85695" lon="1.3431">
        <ele>90.02</ele>
        <time>2022-08-10T15:46:59Z</time>
      </trkpt>
      <trkpt lat="44.85692" lon="1.34304">
        <ele>90.02</ele>
        <time>2022-08-10T15:47:00Z</time>
      </trkpt>
      <trkpt lat="44.85688" lon="1.34291">
        <ele>90.02</ele>
        <time>2022-08-10T15:47:02Z</time>
      </trkpt>
      <trkpt lat="44.85686" lon="1.34285">
        <ele>90.5</ele>
        <time>2022-08-10T15:47:03Z</time>
      </trkpt>
      <trkpt lat="44.85665" lon="1.34232">
        <ele>91.46</ele>
        <time>2022-08-10T15:47:10Z</time>
      </trkpt>
      <trkpt lat="44.85657" lon="1.34212">
        <ele>91.46</ele>
        <time>2022-08-10T15:47:13Z</time>
      </trkpt>
      <trkpt lat="44.85601" lon="1.34103">
        <ele>91.94</ele>
        <time>2022-08-10T15:47:28Z</time>
      </trkpt>
      <trkpt lat="44.85548" lon="1.34003">
        <ele>90.02</ele>
        <time>2022-08-10T15:47:44Z</time>
      </trkpt>
      <trkpt lat="44.85484" lon="1.33882">
        <ele>88.1</ele>
        <time>2022-08-10T15:48:03Z</time>
      </trkpt>
      <trkpt lat="44.85439" lon="1.338">
        <ele>88.1</ele>
        <time>2022-08-10T15:48:16Z</time>
      </trkpt>
      <trkpt lat="44.85395" lon="1.33717">
        <ele>88.1</ele>
        <time>2022-08-10T15:48:29Z</time>
      </trkpt>
      <trkpt lat="44.85353" lon="1.33626">
        <ele>87.14</ele>
        <time>2022-08-10T15:48:42Z</time>
      </trkpt>
      <trkpt lat="44.85319" lon="1.33562">
        <ele>85.69</ele>
        <time>2022-08-10T15:48:52Z</time>
      </trkpt>
      <trkpt lat="44.85303" lon="1.33528">
        <ele>85.69</ele>
        <time>2022-08-10T15:48:58Z</time>
      </trkpt>
      <trkpt lat="44.853" lon="1.33524">
        <ele>86.18</ele>
        <time>2022-08-10T15:48:59Z</time>
      </trkpt>
      <trkpt lat="44.85297" lon="1.33521">
        <ele>86.18</ele>
        <time>2022-08-10T15:49:00Z</time>
      </trkpt>
      <trkpt lat="44.85296" lon="1.33517">
        <ele>86.18</ele>
        <time>2022-08-10T15:49:01Z</time>
      </trkpt>
      <trkpt lat="44.85296" lon="1.33512">
        <ele>86.18</ele>
        <time>2022-08-10T15:49:02Z</time>
      </trkpt>
      <trkpt lat="44.85296" lon="1.33508">
        <ele>86.18</ele>
        <time>2022-08-10T15:49:03Z</time>
      </trkpt>
      <trkpt lat="44.85297" lon="1.33504">
        <ele>86.18</ele>
        <time>2022-08-10T15:49:04Z</time>
      </trkpt>
      <trkpt lat="44.85299" lon="1.33501">
        <ele>86.18</ele>
        <time>2022-08-10T15:49:05Z</time>
      </trkpt>
      <trkpt lat="44.85304" lon="1.3346">
        <ele>86.18</ele>
        <time>2022-08-10T15:49:14Z</time>
      </trkpt>
      <trkpt lat="44.85293" lon="1.33385">
        <ele>86.18</ele>
        <time>2022-08-10T15:49:27Z</time>
      </trkpt>
      <trkpt lat="44.85291" lon="1.33355">
        <ele>88.1</ele>
        <time>2022-08-10T15:49:31Z</time>
      </trkpt>
      <trkpt lat="44.85291" lon="1.33346">
        <ele>88.58</ele>
        <time>2022-08-10T15:49:32Z</time>
      </trkpt>
      <trkpt lat="44.85289" lon="1.33331">
        <ele>89.06</ele>
        <time>2022-08-10T15:49:34Z</time>
      </trkpt>
      <trkpt lat="44.85288" lon="1.33323">
        <ele>89.54</ele>
        <time>2022-08-10T15:49:35Z</time>
      </trkpt>
      <trkpt lat="44.85287" lon="1.33291">
        <ele>90.98</ele>
        <time>2022-08-10T15:49:39Z</time>
      </trkpt>
      <trkpt lat="44.85286" lon="1.33204">
        <ele>90.5</ele>
        <time>2022-08-10T15:49:50Z</time>
      </trkpt>
      <trkpt lat="44.85285" lon="1.33174">
        <ele>90.02</ele>
        <time>2022-08-10T15:49:54Z</time>
      </trkpt>
      <trkpt lat="44.85285" lon="1.33166">
        <ele>90.02</ele>
        <time>2022-08-10T15:49:55Z</time>
      </trkpt>
      <trkpt lat="44.85285" lon="1.33158">
        <ele>89.54</ele>
        <time>2022-08-10T15:49:56Z</time>
      </trkpt>
      <trkpt lat="44.85283" lon="1.33127">
        <ele>89.06</ele>
        <time>2022-08-10T15:50:00Z</time>
      </trkpt>
      <trkpt lat="44.85283" lon="1.33119">
        <ele>89.06</ele>
        <time>2022-08-10T15:50:01Z</time>
      </trkpt>
      <trkpt lat="44.85282" lon="1.33112">
        <ele>89.06</ele>
        <time>2022-08-10T15:50:02Z</time>
      </trkpt>
      <trkpt lat="44.85281" lon="1.33104">
        <ele>88.58</ele>
        <time>2022-08-10T15:50:03Z</time>
      </trkpt>
      <trkpt lat="44.8528" lon="1.33095">
        <ele>88.58</ele>
        <time>2022-08-10T15:50:04Z</time>
      </trkpt>
      <trkpt lat="44.8528" lon="1.33087">
        <ele>88.1</ele>
        <time>2022-08-10T15:50:05Z</time>
      </trkpt>
      <trkpt lat="44.85277" lon="1.3304">
        <ele>86.66</ele>
        <time>2022-08-10T15:50:11Z</time>
      </trkpt>
      <trkpt lat="44.85277" lon="1.33032">
        <ele>86.66</ele>
        <time>2022-08-10T15:50:12Z</time>
      </trkpt>
      <trkpt lat="44.85274" lon="1.32952">
        <ele>87.62</ele>
        <time>2022-08-10T15:50:22Z</time>
      </trkpt>
      <trkpt lat="44.85275" lon="1.32944">
        <ele>87.62</ele>
        <time>2022-08-10T15:50:23Z</time>
      </trkpt>
      <trkpt lat="44.85274" lon="1.32936">
        <ele>88.1</ele>
        <time>2022-08-10T15:50:24Z</time>
      </trkpt>
      <trkpt lat="44.85274" lon="1.32928">
        <ele>87.62</ele>
        <time>2022-08-10T15:50:25Z</time>
      </trkpt>
      <trkpt lat="44.85273" lon="1.3292">
        <ele>87.62</ele>
        <time>2022-08-10T15:50:26Z</time>
      </trkpt>
      <trkpt lat="44.85273" lon="1.32912">
        <ele>87.62</ele>
        <time>2022-08-10T15:50:27Z</time>
      </trkpt>
      <trkpt lat="44.85272" lon="1.32904">
        <ele>88.1</ele>
        <time>2022-08-10T15:50:28Z</time>
      </trkpt>
      <trkpt lat="44.85272" lon="1.32896">
        <ele>88.1</ele>
        <time>2022-08-10T15:50:29Z</time>
      </trkpt>
      <trkpt lat="44.85271" lon="1.32888">
        <ele>88.58</ele>
        <time>2022-08-10T15:50:30Z</time>
      </trkpt>
      <trkpt lat="44.85269" lon="1.32792">
        <ele>90.02</ele>
        <time>2022-08-10T15:50:42Z</time>
      </trkpt>
      <trkpt lat="44.85263" lon="1.32671">
        <ele>90.5</ele>
        <time>2022-08-10T15:50:56Z</time>
      </trkpt>
      <trkpt lat="44.85257" lon="1.32561">
        <ele>89.06</ele>
        <time>2022-08-10T15:51:09Z</time>
      </trkpt>
      <trkpt lat="44.85252" lon="1.32454">
        <ele>89.06</ele>
        <time>2022-08-10T15:51:22Z</time>
      </trkpt>
      <trkpt lat="44.85253" lon="1.32448">
        <ele>89.06</ele>
        <time>2022-08-10T15:51:23Z</time>
      </trkpt>
      <trkpt lat="44.85256" lon="1.32442">
        <ele>89.06</ele>
        <time>2022-08-10T15:51:24Z</time>
      </trkpt>
      <trkpt lat="44.85259" lon="1.32438">
        <ele>88.58</ele>
        <time>2022-08-10T15:51:25Z</time>
      </trkpt>
      <trkpt lat="44.85262" lon="1.32434">
        <ele>88.58</ele>
        <time>2022-08-10T15:51:26Z</time>
      </trkpt>
      <trkpt lat="44.85265" lon="1.3243">
        <ele>88.1</ele>
        <time>2022-08-10T15:51:27Z</time>
      </trkpt>
      <trkpt lat="44.85268" lon="1.32428">
        <ele>88.1</ele>
        <time>2022-08-10T15:51:28Z</time>
      </trkpt>
      <trkpt lat="44.85272" lon="1.32426">
        <ele>88.1</ele>
        <time>2022-08-10T15:51:29Z</time>
      </trkpt>
      <trkpt lat="44.85275" lon="1.32423">
        <ele>88.1</ele>
        <time>2022-08-10T15:51:30Z</time>
      </trkpt>
      <trkpt lat="44.85277" lon="1.32419">
        <ele>88.1</ele>
        <time>2022-08-10T15:51:31Z</time>
      </trkpt>
      <trkpt lat="44.85277" lon="1.32415">
        <ele>88.1</ele>
        <time>2022-08-10T15:51:32Z</time>
      </trkpt>
      <trkpt lat="44.85275" lon="1.3241">
        <ele>88.1</ele>
        <time>2022-08-10T15:51:33Z</time>
      </trkpt>
      <trkpt lat="44.85272" lon="1.32407">
        <ele>87.62</ele>
        <time>2022-08-10T15:51:34Z</time>
      </trkpt>
      <trkpt lat="44.85269" lon="1.32404">
        <ele>87.62</ele>
        <time>2022-08-10T15:51:35Z</time>
      </trkpt>
      <trkpt lat="44.85265" lon="1.32402">
        <ele>87.14</ele>
        <time>2022-08-10T15:51:36Z</time>
      </trkpt>
      <trkpt lat="44.85261" lon="1.32401">
        <ele>87.14</ele>
        <time>2022-08-10T15:51:37Z</time>
      </trkpt>
      <trkpt lat="44.85259" lon="1.32403">
        <ele>86.66</ele>
        <time>2022-08-10T15:51:38Z</time>
      </trkpt>
      <trkpt lat="44.85258" lon="1.32408">
        <ele>86.66</ele>
        <time>2022-08-10T15:51:39Z</time>
      </trkpt>
      <trkpt lat="44.85256" lon="1.32413">
        <ele>86.66</ele>
        <time>2022-08-10T15:51:40Z</time>
      </trkpt>
      <trkpt lat="44.85253" lon="1.32424">
        <ele>86.18</ele>
        <time>2022-08-10T15:51:42Z</time>
      </trkpt>
      <trkpt lat="44.85251" lon="1.3243">
        <ele>86.18</ele>
        <time>2022-08-10T15:51:43Z</time>
      </trkpt>
      <trkpt lat="44.85248" lon="1.32436">
        <ele>86.18</ele>
        <time>2022-08-10T15:51:44Z</time>
      </trkpt>
      <trkpt lat="44.85223" lon="1.32474">
        <ele>85.69</ele>
        <time>2022-08-10T15:51:52Z</time>
      </trkpt>
      <trkpt lat="44.85219" lon="1.32472">
        <ele>85.69</ele>
        <time>2022-08-10T15:51:53Z</time>
      </trkpt>
      <trkpt lat="44.85215" lon="1.32468">
        <ele>85.21</ele>
        <time>2022-08-10T15:51:54Z</time>
      </trkpt>
      <trkpt lat="44.85212" lon="1.32463">
        <ele>85.21</ele>
        <time>2022-08-10T15:51:55Z</time>
      </trkpt>
      <trkpt lat="44.85208" lon="1.32457">
        <ele>84.73</ele>
        <time>2022-08-10T15:51:56Z</time>
      </trkpt>
      <trkpt lat="44.85151" lon="1.32354">
        <ele>81.85</ele>
        <time>2022-08-10T15:52:09Z</time>
      </trkpt>
      <trkpt lat="44.85095" lon="1.32246">
        <ele>79.45</ele>
        <time>2022-08-10T15:52:23Z</time>
      </trkpt>
      <trkpt lat="44.85052" lon="1.32149">
        <ele>80.41</ele>
        <time>2022-08-10T15:52:37Z</time>
      </trkpt>
      <trkpt lat="44.85017" lon="1.32051">
        <ele>80.89</ele>
        <time>2022-08-10T15:52:50Z</time>
      </trkpt>
      <trkpt lat="44.84978" lon="1.3194">
        <ele>81.37</ele>
        <time>2022-08-10T15:53:04Z</time>
      </trkpt>
      <trkpt lat="44.84957" lon="1.31823">
        <ele>82.81</ele>
        <time>2022-08-10T15:53:18Z</time>
      </trkpt>
      <trkpt lat="44.84949" lon="1.31777">
        <ele>84.73</ele>
        <time>2022-08-10T15:53:24Z</time>
      </trkpt>
      <trkpt lat="44.84947" lon="1.31771">
        <ele>85.21</ele>
        <time>2022-08-10T15:53:25Z</time>
      </trkpt>
      <trkpt lat="44.84944" lon="1.31766">
        <ele>85.21</ele>
        <time>2022-08-10T15:53:26Z</time>
      </trkpt>
      <trkpt lat="44.84941" lon="1.31764">
        <ele>85.69</ele>
        <time>2022-08-10T15:53:27Z</time>
      </trkpt>
      <trkpt lat="44.84939" lon="1.31764">
        <ele>85.69</ele>
        <time>2022-08-10T15:53:28Z</time>
      </trkpt>
      <trkpt lat="44.84936" lon="1.31763">
        <ele>86.18</ele>
        <time>2022-08-10T15:53:29Z</time>
      </trkpt>
      <trkpt lat="44.84934" lon="1.3176">
        <ele>86.18</ele>
        <time>2022-08-10T15:53:30Z</time>
      </trkpt>
      <trkpt lat="44.84933" lon="1.31755">
        <ele>86.66</ele>
        <time>2022-08-10T15:53:31Z</time>
      </trkpt>
      <trkpt lat="44.84933" lon="1.31751">
        <ele>86.18</ele>
        <time>2022-08-10T15:53:32Z</time>
      </trkpt>
      <trkpt lat="44.84932" lon="1.31745">
        <ele>85.69</ele>
        <time>2022-08-10T15:53:33Z</time>
      </trkpt>
      <trkpt lat="44.84909" lon="1.31626">
        <ele>84.25</ele>
        <time>2022-08-10T15:53:50Z</time>
      </trkpt>
      <trkpt lat="44.84882" lon="1.31478">
        <ele>83.29</ele>
        <time>2022-08-10T15:54:09Z</time>
      </trkpt>
      <trkpt lat="44.8485" lon="1.31312">
        <ele>83.29</ele>
        <time>2022-08-10T15:54:31Z</time>
      </trkpt>
      <trkpt lat="44.8483" lon="1.31144">
        <ele>84.25</ele>
        <time>2022-08-10T15:54:53Z</time>
      </trkpt>
      <trkpt lat="44.84861" lon="1.31025">
        <ele>85.69</ele>
        <time>2022-08-10T15:55:10Z</time>
      </trkpt>
      <trkpt lat="44.84921" lon="1.3095">
        <ele>87.14</ele>
        <time>2022-08-10T15:55:25Z</time>
      </trkpt>
      <trkpt lat="44.85" lon="1.30907">
        <ele>88.58</ele>
        <time>2022-08-10T15:55:41Z</time>
      </trkpt>
      <trkpt lat="44.85041" lon="1.30886">
        <ele>89.54</ele>
        <time>2022-08-10T15:55:49Z</time>
      </trkpt>
      <trkpt lat="44.85046" lon="1.30883">
        <ele>89.54</ele>
        <time>2022-08-10T15:55:50Z</time>
      </trkpt>
      <trkpt lat="44.85146" lon="1.30838">
        <ele>92.42</ele>
        <time>2022-08-10T15:56:09Z</time>
      </trkpt>
      <trkpt lat="44.85225" lon="1.30799">
        <ele>93.87</ele>
        <time>2022-08-10T15:56:25Z</time>
      </trkpt>
      <trkpt lat="44.85242" lon="1.30784">
        <ele>94.35</ele>
        <time>2022-08-10T15:56:29Z</time>
      </trkpt>
      <trkpt lat="44.85282" lon="1.30724">
        <ele>96.27</ele>
        <time>2022-08-10T15:56:40Z</time>
      </trkpt>
      <trkpt lat="44.85295" lon="1.30691">
        <ele>96.75</ele>
        <time>2022-08-10T15:56:45Z</time>
      </trkpt>
      <trkpt lat="44.85311" lon="1.30574">
        <ele>97.71</ele>
        <time>2022-08-10T15:57:00Z</time>
      </trkpt>
      <trkpt lat="44.85299" lon="1.30459">
        <ele>97.71</ele>
        <time>2022-08-10T15:57:14Z</time>
      </trkpt>
      <trkpt lat="44.85309" lon="1.30364">
        <ele>101.56</ele>
        <time>2022-08-10T15:57:26Z</time>
      </trkpt>
      <trkpt lat="44.85357" lon="1.30285">
        <ele>103</ele>
        <time>2022-08-10T15:57:39Z</time>
      </trkpt>
      <trkpt lat="44.8544" lon="1.30203">
        <ele>103.96</ele>
        <time>2022-08-10T15:57:57Z</time>
      </trkpt>
      <trkpt lat="44.85515" lon="1.30129">
        <ele>104.44</ele>
        <time>2022-08-10T15:58:12Z</time>
      </trkpt>
      <trkpt lat="44.8561" lon="1.30035">
        <ele>104.44</ele>
        <time>2022-08-10T15:58:30Z</time>
      </trkpt>
      <trkpt lat="44.85706" lon="1.2994">
        <ele>104.92</ele>
        <time>2022-08-10T15:58:48Z</time>
      </trkpt>
      <trkpt lat="44.85812" lon="1.29835">
        <ele>104.92</ele>
        <time>2022-08-10T15:59:07Z</time>
      </trkpt>
      <trkpt lat="44.85939" lon="1.2971">
        <ele>103.96</ele>
        <time>2022-08-10T15:59:28Z</time>
      </trkpt>
      <trkpt lat="44.86051" lon="1.29616">
        <ele>104.44</ele>
        <time>2022-08-10T15:59:46Z</time>
      </trkpt>
      <trkpt lat="44.86175" lon="1.29554">
        <ele>105.4</ele>
        <time>2022-08-10T16:00:04Z</time>
      </trkpt>
      <trkpt lat="44.86257" lon="1.29515">
        <ele>106.36</ele>
        <time>2022-08-10T16:00:18Z</time>
      </trkpt>
      <trkpt lat="44.86263" lon="1.29514">
        <ele>106.36</ele>
        <time>2022-08-10T16:00:19Z</time>
      </trkpt>
      <trkpt lat="44.86268" lon="1.29515">
        <ele>106.36</ele>
        <time>2022-08-10T16:00:20Z</time>
      </trkpt>
      <trkpt lat="44.86272" lon="1.29517">
        <ele>106.84</ele>
        <time>2022-08-10T16:00:21Z</time>
      </trkpt>
      <trkpt lat="44.86276" lon="1.29523">
        <ele>106.36</ele>
        <time>2022-08-10T16:00:22Z</time>
      </trkpt>
      <trkpt lat="44.86278" lon="1.2953">
        <ele>106.36</ele>
        <time>2022-08-10T16:00:23Z</time>
      </trkpt>
      <trkpt lat="44.86279" lon="1.29539">
        <ele>105.88</ele>
        <time>2022-08-10T16:00:24Z</time>
      </trkpt>
      <trkpt lat="44.86279" lon="1.29549">
        <ele>105.4</ele>
        <time>2022-08-10T16:00:25Z</time>
      </trkpt>
      <trkpt lat="44.8628" lon="1.2956">
        <ele>104.92</ele>
        <time>2022-08-10T16:00:26Z</time>
      </trkpt>
      <trkpt lat="44.86282" lon="1.29571">
        <ele>104.44</ele>
        <time>2022-08-10T16:00:27Z</time>
      </trkpt>
      <trkpt lat="44.86285" lon="1.29583">
        <ele>103.48</ele>
        <time>2022-08-10T16:00:28Z</time>
      </trkpt>
      <trkpt lat="44.86288" lon="1.29595">
        <ele>103</ele>
        <time>2022-08-10T16:00:29Z</time>
      </trkpt>
      <trkpt lat="44.86292" lon="1.29606">
        <ele>102.52</ele>
        <time>2022-08-10T16:00:30Z</time>
      </trkpt>
      <trkpt lat="44.86329" lon="1.29721">
        <ele>102.52</ele>
        <time>2022-08-10T16:00:42Z</time>
      </trkpt>
      <trkpt lat="44.86345" lon="1.2978">
        <ele>103.96</ele>
        <time>2022-08-10T16:00:54Z</time>
      </trkpt>
      <trkpt lat="44.86346" lon="1.29783">
        <ele>103.96</ele>
        <time>2022-08-10T16:00:55Z</time>
      </trkpt>
      <trkpt lat="44.86348" lon="1.29784">
        <ele>103.96</ele>
        <time>2022-08-10T16:00:56Z</time>
      </trkpt>
      <trkpt lat="44.8635" lon="1.29784">
        <ele>103.96</ele>
        <time>2022-08-10T16:00:57Z</time>
      </trkpt>
      <trkpt lat="44.86353" lon="1.29784">
        <ele>103.96</ele>
        <time>2022-08-10T16:00:58Z</time>
      </trkpt>
      <trkpt lat="44.86355" lon="1.29784">
        <ele>103.96</ele>
        <time>2022-08-10T16:00:59Z</time>
      </trkpt>
      <trkpt lat="44.86358" lon="1.29784">
        <ele>103.96</ele>
        <time>2022-08-10T16:01:00Z</time>
      </trkpt>
      <trkpt lat="44.86387" lon="1.29774">
        <ele>104.44</ele>
        <time>2022-08-10T16:01:11Z</time>
      </trkpt>
      <trkpt lat="44.8641" lon="1.29791">
        <ele>103.96</ele>
        <time>2022-08-10T16:01:20Z</time>
      </trkpt>
      <trkpt lat="44.86413" lon="1.29797">
        <ele>103.48</ele>
        <time>2022-08-10T16:01:21Z</time>
      </trkpt>
      <trkpt lat="44.86453" lon="1.29877">
        <ele>99.63</ele>
        <time>2022-08-10T16:01:31Z</time>
      </trkpt>
      <trkpt lat="44.86466" lon="1.29907">
        <ele>99.15</ele>
        <time>2022-08-10T16:01:35Z</time>
      </trkpt>
      <trkpt lat="44.86467" lon="1.29913">
        <ele>99.15</ele>
        <time>2022-08-10T16:01:36Z</time>
      </trkpt>
      <trkpt lat="44.86467" lon="1.2992">
        <ele>99.15</ele>
        <time>2022-08-10T16:01:37Z</time>
      </trkpt>
      <trkpt lat="44.86465" lon="1.29932">
        <ele>99.15</ele>
        <time>2022-08-10T16:01:39Z</time>
      </trkpt>
      <trkpt lat="44.86464" lon="1.29938">
        <ele>99.63</ele>
        <time>2022-08-10T16:01:40Z</time>
      </trkpt>
      <trkpt lat="44.86461" lon="1.29942">
        <ele>99.63</ele>
        <time>2022-08-10T16:01:41Z</time>
      </trkpt>
      <trkpt lat="44.86458" lon="1.29946">
        <ele>99.63</ele>
        <time>2022-08-10T16:01:42Z</time>
      </trkpt>
      <trkpt lat="44.86456" lon="1.29949">
        <ele>99.63</ele>
        <time>2022-08-10T16:01:43Z</time>
      </trkpt>
      <trkpt lat="44.86454" lon="1.29954">
        <ele>100.11</ele>
        <time>2022-08-10T16:01:44Z</time>
      </trkpt>
      <trkpt lat="44.86453" lon="1.29958">
        <ele>100.6</ele>
        <time>2022-08-10T16:01:45Z</time>
      </trkpt>
      <trkpt lat="44.86454" lon="1.29963">
        <ele>101.08</ele>
        <time>2022-08-10T16:01:46Z</time>
      </trkpt>
      <trkpt lat="44.86454" lon="1.29967">
        <ele>101.08</ele>
        <time>2022-08-10T16:01:47Z</time>
      </trkpt>
      <trkpt lat="44.86455" lon="1.29972">
        <ele>101.08</ele>
        <time>2022-08-10T16:01:48Z</time>
      </trkpt>
      <trkpt lat="44.86475" lon="1.30033">
        <ele>103.96</ele>
        <time>2022-08-10T16:02:03Z</time>
      </trkpt>
      <trkpt lat="44.86476" lon="1.30036">
        <ele>103.96</ele>
        <time>2022-08-10T16:02:04Z</time>
      </trkpt>
      <trkpt lat="44.86476" lon="1.30039">
        <ele>103.96</ele>
        <time>2022-08-10T16:02:12Z</time>
      </trkpt>
    </trkseg>
  </trk>
</gpx>